QY3611 / D-AEAQ 7700 Squawk Report (17th of October, 2019)

Aircraft A306 Reg No. D-AEAQ Age 25 years old
Model A300 Jet engines 2 First flight 16-02-94
Registered 26-07-12 Rollout 02-94 Delivered 31-05-94
Construction No. 729 Line No. N/A Series B4-622R
ADSHEX 3C5431 Airline name DHL Air UK Owner Wells Fargo Trust Co NA Trustee
Airfield based Leipzig-Halle~Saxony~D First tracked 2017-07-13 02:47:00

Flight history for D-AEAQ

Route Flight No Date Playback
Dublin (DUB) - East Midlands Airport (EMA) QY2883 2019-11-21 21:56:00
East Midlands Airport (EMA) - Dublin (DUB) QY2882 2019-11-21 06:15:00
???? N/A 2019-11-21 03:34:00
???? N/A 2019-11-21 02:32:00
Belfast International (BFS) - East Midlands Airport (EMA) QY2407 2019-11-20 21:38:00
???? QY2406 2019-11-20 06:10:00
???? N/A 2019-11-20 03:29:00
Helsinki Vantaa (HEL) - Leipzig Halle (LEJ) QY3611 2019-11-20 01:31:00
???? QY3612 2019-11-19 05:18:00
???? N/A 2019-11-19 03:27:00
???? QY933 2019-11-18 20:30:00
???? QY932 2019-11-18 08:32:00
???? N/A 2019-11-18 05:25:00
???? N/A 2019-11-18 00:19:00
???? QY6773 2019-11-17 12:55:00
???? N/A 2019-11-16 09:54:00
???? QY144 2019-11-16 06:50:00
???? N/A 2019-11-15 01:16:00
Dublin (DUB) - East Midlands Airport (EMA) QY2883 2019-11-14 22:10:00
East Midlands Airport (EMA) - Dublin (DUB) QY2882 2019-11-14 06:14:00
Time Lat Lon Altitude Heading Speed Vertical Rate
2019-10-18 01:19:57 GMT 51.409138 12.232868 0 174 12 0
2019-10-18 01:19:54 GMT 51.409252 12.232857 0 174 14 0
2019-10-18 01:19:43 GMT 51.409824 12.232775 0 174 11 0
2019-10-18 01:19:13 GMT 51.410248 12.230975 0 84 20 0
2019-10-18 01:18:54 GMT 51.410137 12.228508 0 84 17 0
2019-10-18 01:18:36 GMT 51.410030 12.226763 0 84 13 0
2019-10-18 01:18:32 GMT 51.410057 12.226467 0 67 14 0
2019-10-18 01:18:18 GMT 51.409988 12.225285 0 84 12 0
2019-10-18 01:18:13 GMT 51.409950 12.224789 0 84 12 0
2019-10-18 01:17:34 GMT 51.410755 12.223167 0 205 10 0
2019-10-18 01:17:28 GMT 51.410931 12.223454 0 236 10 0
2019-10-18 01:16:33 GMT 51.412766 12.229398 0 261 29 0
2019-10-18 01:16:27 GMT 51.412861 12.231350 0 264 54 0
2019-10-18 01:16:17 GMT 51.413082 12.235775 0 267 96 0
2019-10-18 01:16:06 GMT 51.413498 12.244819 0 267 140 0
2019-10-18 01:15:53 GMT 51.414154 12.259369 575 266 140 -640
2019-10-18 01:15:49 GMT 51.414276 12.261930 600 266 138 -704
2019-10-18 01:15:41 GMT 51.414734 12.271506 725 266 136 -704
2019-10-18 01:15:36 GMT 51.414963 12.275663 800 266 135 -640
2019-10-18 01:15:32 GMT 51.415131 12.279739 825 266 133 -576
2019-10-18 01:15:28 GMT 51.415318 12.282639 850 266 133 -768
2019-10-18 01:15:22 GMT 51.415596 12.289429 925 267 131 -704
2019-10-18 01:15:19 GMT 51.415695 12.292291 975 267 130 -640
2019-10-18 01:15:15 GMT 51.415833 12.295928 1,025 266 130 -704
2019-10-18 01:15:12 GMT 51.415970 12.298737 1,050 267 129 -640
2019-10-18 01:15:09 GMT 51.416107 12.301718 1,075 267 129 -640
2019-10-18 01:15:06 GMT 51.416203 12.304153 1,100 267 129 -704
2019-10-18 01:15:02 GMT 51.416389 12.308273 1,150 266 127 -704
2019-10-18 01:14:56 GMT 51.416668 12.314224 1,225 266 127 -704
2019-10-18 01:14:52 GMT 51.416840 12.318049 1,275 266 126 -640
2019-10-18 01:14:49 GMT 51.416992 12.321167 1,325 266 125 -576
2019-10-18 01:14:46 GMT 51.417160 12.323839 1,350 266 125 -640
2019-10-18 01:14:42 GMT 51.417297 12.326883 1,375 266 125 -640
2019-10-18 01:14:38 GMT 51.417435 12.330298 1,400 266 124 -576
2019-10-18 01:14:34 GMT 51.417618 12.333786 1,450 266 124 -640
2019-10-18 01:14:31 GMT 51.417801 12.337498 1,500 266 124 -576
2019-10-18 01:14:28 GMT 51.417877 12.339630 1,525 266 124 -640
2019-10-18 01:14:25 GMT 51.418018 12.342453 1,575 266 124 -704
2019-10-18 01:14:22 GMT 51.418156 12.345810 1,600 266 125 -704
2019-10-18 01:14:18 GMT 51.418297 12.349014 1,650 266 126 -640
2019-10-18 01:14:14 GMT 51.418488 12.352344 1,675 266 125 -640
2019-10-18 01:14:11 GMT 51.418575 12.355042 1,725 266 124 -640
2019-10-18 01:14:05 GMT 51.418903 12.361603 1,800 267 121 -704
2019-10-18 01:14:01 GMT 51.418995 12.364349 1,850 266 120 -576
2019-10-18 01:13:57 GMT 51.419136 12.367630 1,875 266 119 -640
2019-10-18 01:13:54 GMT 51.419273 12.370453 1,925 266 119 -576
2019-10-18 01:13:50 GMT 51.419449 12.373797 1,950 266 120 -576
2019-10-18 01:13:44 GMT 51.419739 12.379837 2,025 266 124 -576
2019-10-18 01:13:40 GMT 51.419880 12.382965 2,050 266 126 -704
2019-10-18 01:13:37 GMT 51.420044 12.386343 2,100 267 130 -768
2019-10-18 01:13:34 GMT 51.420158 12.389374 2,150 266 135 -704
2019-10-18 01:13:31 GMT 51.420319 12.392504 2,175 266 138 -768
2019-10-18 01:13:26 GMT 51.420486 12.396698 2,225 266 140 -640
2019-10-18 01:13:23 GMT 51.420685 12.400372 2,275 266 151 -768
2019-10-18 01:13:20 GMT 51.420765 12.402725 2,300 266 145 -704
2019-10-18 01:13:16 GMT 51.421005 12.407276 2,325 266 147 -704
2019-10-18 01:13:11 GMT 51.421322 12.414169 2,400 266 154 -768
2019-10-18 01:13:04 GMT 51.421692 12.422494 2,500 266 159 -896
2019-10-18 01:13:00 GMT 51.421829 12.425834 2,575 266 161 -896
2019-10-18 01:12:56 GMT 51.422066 12.431030 2,650 267 161 -896
2019-10-18 01:12:53 GMT 51.422253 12.435532 2,700 267 161 -832
2019-10-18 01:12:50 GMT 51.422394 12.438507 2,725 267 161 -832
2019-10-18 01:12:43 GMT 51.422718 12.446899 2,850 267 162 -832
2019-10-18 01:12:40 GMT 51.422882 12.450405 2,875 267 163 -832
2019-10-18 01:12:35 GMT 51.423046 12.455215 2,925 267 165 -832
2019-10-18 01:12:32 GMT 51.423229 12.459488 2,975 267 167 -832
2019-10-18 01:12:29 GMT 51.423386 12.462727 3,025 267 168 -832
2019-10-18 01:12:25 GMT 51.423603 12.467957 3,075 266 170 -832
2019-10-18 01:12:19 GMT 51.423931 12.475662 3,175 266 173 -896
2019-10-18 01:12:15 GMT 51.424164 12.480850 3,225 266 175 -896
2019-10-18 01:12:12 GMT 51.424393 12.485591 3,300 266 176 -960
2019-10-18 01:12:09 GMT 51.424530 12.488040 3,300 266 176 -960
2019-10-18 01:12:04 GMT 51.424850 12.494424 3,400 266 178 -896
2019-10-18 01:11:59 GMT 51.425232 12.501373 3,450 266 178 -960
2019-10-18 01:11:55 GMT 51.425560 12.507324 3,550 266 178 -896
2019-10-18 01:11:49 GMT 51.425949 12.514838 3,625 266 178 -896
2019-10-18 01:11:45 GMT 51.426258 12.521210 3,725 266 179 -896
2019-10-18 01:11:38 GMT 51.426682 12.529313 3,800 266 179 -832
2019-10-18 01:11:34 GMT 51.426956 12.535252 3,875 266 180 -832
2019-10-18 01:11:29 GMT 51.427277 12.542155 3,950 266 181 -832
2019-10-18 01:11:24 GMT 51.427608 12.548676 4,025 267 182 -832
2019-10-18 01:11:21 GMT 51.427689 12.552696 4,075 267 183 -832
2019-10-18 01:11:18 GMT 51.427841 12.556152 4,075 267 183 -832
2019-10-18 01:11:14 GMT 51.428024 12.562180 4,175 267 184 -960
2019-10-18 01:11:10 GMT 51.428238 12.567766 4,225 268 185 -960
2019-10-18 01:11:03 GMT 51.428513 12.577045 4,350 268 187 -1024
2019-10-18 01:11:00 GMT 51.428677 12.582550 4,425 268 187 -1088
2019-10-18 01:10:53 GMT 51.428925 12.591223 4,525 268 188 -1088
2019-10-18 01:10:49 GMT 51.429062 12.596271 4,600 267 188 -1152
2019-10-18 01:10:43 GMT 51.429375 12.604752 4,725 267 188 -960
2019-10-18 01:10:37 GMT 51.429703 12.612762 4,775 267 187 -960
2019-10-18 01:10:33 GMT 51.429981 12.618790 4,875 266 186 -768
2019-10-18 01:10:28 GMT 51.430344 12.625815 4,925 266 185 -704
2019-10-18 01:10:22 GMT 51.430756 12.632867 5,000 265 185 -512
2019-10-18 01:10:19 GMT 51.430984 12.638434 5,025 265 187 -320
2019-10-18 01:10:16 GMT 51.431236 12.641373 5,025 264 190 -192
2019-10-18 01:10:13 GMT 51.431564 12.646713 5,050 264 192 0
2019-10-18 01:10:10 GMT 51.431934 12.651443 5,050 262 193 0
2019-10-18 01:10:06 GMT 51.432354 12.656174 5,050 262 194 0
2019-10-18 01:10:02 GMT 51.432961 12.661209 5,050 259 194 192
2019-10-18 01:09:58 GMT 51.433731 12.666717 5,025 253 194 -64
2019-10-18 01:09:52 GMT 51.435699 12.675179 5,025 246 194 64
2019-10-18 01:09:47 GMT 51.437943 12.681786 5,025 236 194 0
2019-10-18 01:09:38 GMT 51.443481 12.692846 5,025 227 194 0
2019-10-18 01:09:32 GMT 51.446915 12.698711 5,025 227 194 0
2019-10-18 01:09:27 GMT 51.449627 12.703400 5,025 228 193 0
2019-10-18 01:09:21 GMT 51.453461 12.709697 5,025 228 193 0
2019-10-18 01:09:17 GMT 51.455910 12.714157 5,025 227 193 0
2019-10-18 01:09:11 GMT 51.459503 12.720089 5,025 227 193 0
2019-10-18 01:09:07 GMT 51.461792 12.724024 5,025 227 193 0
2019-10-18 01:09:04 GMT 51.463760 12.727513 5,025 227 191 0
2019-10-18 01:08:58 GMT 51.468060 12.734528 5,025 227 191 0
2019-10-18 01:08:55 GMT 51.469688 12.737579 5,025 227 191 0
2019-10-18 01:08:50 GMT 51.471634 12.741023 5,025 227 191 0
2019-10-18 01:08:47 GMT 51.474159 12.745209 5,025 227 191 0
2019-10-18 01:08:43 GMT 51.476303 12.748817 5,025 227 191 0
2019-10-18 01:08:40 GMT 51.478256 12.752075 5,025 227 191 0
2019-10-18 01:08:37 GMT 51.480072 12.754974 5,025 227 191 0
2019-10-18 01:08:34 GMT 51.482121 12.758636 5,025 227 192 0
2019-10-18 01:08:31 GMT 51.483994 12.761659 5,050 227 192 0
2019-10-18 01:08:28 GMT 51.486355 12.765656 5,050 227 192 0
2019-10-18 01:08:25 GMT 51.487381 12.767598 5,025 227 192 0
2019-10-18 01:08:20 GMT 51.492779 12.776642 5,050 227 193 -64
2019-10-18 01:08:16 GMT 51.492779 12.776642 5,050 227 193 -64
2019-10-18 01:08:12 GMT 51.495529 12.781331 5,050 227 193 0
2019-10-18 01:08:09 GMT 51.496922 12.783585 5,050 227 195 0
2019-10-18 01:08:06 GMT 51.498917 12.787195 5,050 227 195 0
2019-10-18 01:08:03 GMT 51.501858 12.791977 5,050 227 197 0
2019-10-18 01:08:00 GMT 51.503208 12.794342 5,025 227 200 0
2019-10-18 01:07:56 GMT 51.505737 12.798553 5,025 227 205 -128
2019-10-18 01:07:49 GMT 51.509674 12.805308 5,050 227 210 -256
2019-10-18 01:07:46 GMT 51.511917 12.809242 5,075 228 215 -448
2019-10-18 01:07:43 GMT 51.516895 12.817612 5,100 228 219 -448
2019-10-18 01:07:39 GMT 51.516895 12.817612 5,125 228 219 -448
2019-10-18 01:07:35 GMT 51.519150 12.821787 5,175 228 221 -448
2019-10-18 01:07:32 GMT 51.521347 12.825647 5,200 228 221 -384
2019-10-18 01:07:27 GMT 51.525650 12.833145 5,225 228 221 -448
2019-10-18 01:07:23 GMT 51.527508 12.836380 5,250 228 222 -448
2019-10-18 01:07:20 GMT 51.531647 12.843463 5,300 228 222 -448
2019-10-18 01:07:14 GMT 51.533794 12.847214 5,325 228 222 -512
2019-10-18 01:07:11 GMT 51.535858 12.850738 5,325 228 222 -512
2019-10-18 01:07:08 GMT 51.538422 12.855043 5,375 227 223 -448
2019-10-18 01:07:05 GMT 51.542126 12.861481 5,400 227 223 -448
2019-10-18 01:07:02 GMT 51.542824 12.862625 5,425 227 224 -384
2019-10-18 01:06:59 GMT 51.544373 12.865213 5,450 227 225 -448
2019-10-18 01:06:56 GMT 51.547340 12.870178 5,475 227 226 -448
2019-10-18 01:06:53 GMT 51.551018 12.876587 5,500 227 229 -512
2019-10-18 01:06:47 GMT 51.553207 12.880208 5,525 227 231 -448
2019-10-18 01:06:44 GMT 51.555771 12.884736 5,550 227 232 -448
2019-10-18 01:06:41 GMT 51.557720 12.887955 5,600 227 235 -448
2019-10-18 01:06:38 GMT 51.560303 12.892382 5,625 227 237 -512
2019-10-18 01:06:35 GMT 51.561909 12.895355 5,625 227 238 -512
2019-10-18 01:06:32 GMT 51.564938 12.900238 5,675 227 241 -576
2019-10-18 01:06:29 GMT 51.567123 12.904333 5,700 227 242 -576
2019-10-18 01:06:26 GMT 51.569637 12.908630 5,750 228 246 -832
2019-10-18 01:06:20 GMT 51.573456 12.915039 5,825 228 246 -832
2019-10-18 01:06:16 GMT 51.577412 12.921982 5,925 228 247 -704
2019-10-18 01:06:13 GMT 51.579117 12.925118 5,925 228 247 -768
2019-10-18 01:06:10 GMT 51.581268 12.928904 5,975 228 249 -1280
2019-10-18 01:06:05 GMT 51.585281 12.935715 6,025 227 247 -832
2019-10-18 01:06:01 GMT 51.588272 12.941004 6,050 227 249 -896
2019-10-18 01:05:58 GMT 51.590607 12.944493 6,125 228 249 -1280
2019-10-18 01:05:55 GMT 51.593582 12.949615 6,200 228 249 -1280
2019-10-18 01:05:52 GMT 51.595642 12.953475 6,250 228 250 -1344
2019-10-18 01:05:49 GMT 51.597942 12.957382 6,325 227 250 -1344
2019-10-18 01:05:45 GMT 51.601227 12.962976 6,425 227 251 -1344
2019-10-18 01:05:41 GMT 51.604248 12.968395 6,500 227 251 -1408
2019-10-18 01:05:38 GMT 51.606857 12.972478 6,550 227 251 -1408
2019-10-18 01:05:35 GMT 51.609627 12.977219 6,675 227 251 -1344
2019-10-18 01:05:32 GMT 51.612141 12.981873 6,775 227 251 -1344
2019-10-18 01:05:29 GMT 51.614410 12.985320 6,775 227 251 -1344
2019-10-18 01:05:26 GMT 51.616058 12.988586 6,900 227 251 -1344
2019-10-18 01:05:23 GMT 51.618759 12.993189 6,925 227 251 -1344
2019-10-18 01:05:19 GMT 51.621872 12.998385 7,000 227 252 -1344
2019-10-18 01:05:15 GMT 51.625130 13.003998 7,100 228 252 -1344
2019-10-18 01:05:12 GMT 51.627361 13.007889 7,175 228 253 -1344
2019-10-18 01:05:09 GMT 51.629875 13.012009 7,450 228 254 -1216
2019-10-18 01:05:06 GMT 51.632763 13.017273 7,325 228 253 -1344
2019-10-18 01:05:02 GMT 51.635368 13.021698 7,400 228 254 -1216
2019-10-18 01:04:59 GMT 51.640366 13.030453 7,500 228 254 -1344
2019-10-18 01:04:55 GMT 51.640724 13.031158 7,550 228 254 -1216
2019-10-18 01:04:52 GMT 51.643284 13.035583 7,650 228 254 -1344
2019-10-18 01:04:49 GMT 51.645584 13.039955 7,700 228 255 -1344
2019-10-18 01:04:46 GMT 51.648331 13.044409 7,775 228 255 -1408
2019-10-18 01:04:42 GMT 51.651428 13.049850 7,850 228 255 -1408
2019-10-18 01:04:39 GMT 51.653896 13.054352 7,900 228 255 -1472
2019-10-18 01:04:36 GMT 51.655838 13.057845 8,000 228 255 -1472
2019-10-18 01:04:33 GMT 51.658401 13.062002 8,050 228 255 -1472
2019-10-18 01:04:30 GMT 51.661301 13.067245 8,175 228 255 -1472
2019-10-18 01:04:24 GMT 51.666000 13.075638 8,300 228 255 -1280
2019-10-18 01:04:19 GMT 51.669910 13.082657 8,400 228 256 -1216
2019-10-18 01:04:14 GMT 51.674332 13.090061 8,500 228 256 -1792
2019-10-18 01:04:11 GMT 51.675980 13.092808 8,600 228 255 -1728
2019-10-18 01:04:07 GMT 51.681271 13.102188 8,750 228 256 -1600
2019-10-18 01:04:04 GMT 51.681271 13.102188 8,850 228 256 -1536
2019-10-18 01:04:01 GMT 51.684341 13.107529 8,900 227 257 -1472
2019-10-18 01:03:57 GMT 51.687012 13.112183 8,950 228 258 -1472
2019-10-18 01:03:54 GMT 51.690216 13.117750 9,100 228 259 -1536
2019-10-18 01:03:51 GMT 51.692394 13.121338 9,150 228 259 -1536
2019-10-18 01:03:47 GMT 51.695114 13.126287 9,225 228 260 -1536
2019-10-18 01:03:44 GMT 51.697750 13.131027 9,350 228 261 -1280
2019-10-18 01:03:41 GMT 51.700684 13.136215 9,400 228 262 -1280
2019-10-18 01:03:36 GMT 51.704639 13.142853 9,500 228 264 -1024
2019-10-18 01:03:32 GMT 51.707245 13.147507 9,525 228 266 -832
2019-10-18 01:03:28 GMT 51.711731 13.155311 9,600 227 270 -704
2019-10-18 01:03:23 GMT 51.715767 13.162231 9,675 228 275 -832
2019-10-18 01:03:20 GMT 51.717861 13.165894 9,700 228 277 -832
2019-10-18 01:03:17 GMT 51.721306 13.171921 9,750 228 280 -832
2019-10-18 01:03:13 GMT 51.724960 13.178249 9,825 228 283 -832
2019-10-18 01:03:10 GMT 51.726791 13.181367 9,850 228 286 -832
2019-10-18 01:03:06 GMT 51.730244 13.187485 9,900 228 288 -832
2019-10-18 01:03:03 GMT 51.733063 13.192353 9,950 228 290 -832
2019-10-18 01:03:00 GMT 51.736038 13.197475 10,000 228 317 -768
2019-10-18 01:02:57 GMT 51.739517 13.203636 10,050 228 297 -896
2019-10-18 01:02:51 GMT 51.743912 13.211505 10,100 228 300 -960
2019-10-18 01:02:48 GMT 51.747986 13.218483 10,175 228 305 -960
2019-10-18 01:02:45 GMT 51.750275 13.222491 10,275 228 307 -1024
2019-10-18 01:02:40 GMT 51.755150 13.231201 10,300 228 310 -960
2019-10-18 01:02:36 GMT 51.759109 13.238228 11,075 228 317 -768
2019-10-18 01:02:31 GMT 51.763344 13.245697 10,425 228 319 -1344
2019-10-18 01:02:28 GMT 51.766415 13.250961 10,525 228 321 -2304
2019-10-18 01:02:25 GMT 51.770142 13.257455 10,625 228 321 -2432
2019-10-18 01:02:21 GMT 51.774094 13.264313 10,825 228 322 -2688
2019-10-18 01:02:18 GMT 51.776840 13.269272 11,000 228 322 -2624
2019-10-18 01:02:15 GMT 51.780987 13.276367 11,125 228 323 -2624
2019-10-18 01:02:10 GMT 51.784744 13.282990 11,325 228 324 -2624
2019-10-18 01:02:06 GMT 51.789047 13.290785 11,400 228 324 -2688
2019-10-18 01:02:03 GMT 51.792110 13.295898 11,550 228 324 -2816
2019-10-18 01:02:00 GMT 51.798817 13.307648 11,750 228 324 -3072
2019-10-18 01:01:56 GMT 51.798817 13.307648 11,925 228 324 -3008
2019-10-18 01:01:53 GMT 51.802368 13.313871 12,050 228 324 -2944
2019-10-18 01:01:50 GMT 51.805435 13.319216 12,375 228 324 -2880
2019-10-18 01:01:46 GMT 51.809875 13.327084 12,400 228 324 -2880
2019-10-18 01:01:43 GMT 51.812454 13.331528 12,500 228 324 -2880
2019-10-18 01:01:40 GMT 51.814545 13.335324 12,675 228 325 -2880
2019-10-18 01:01:37 GMT 51.818253 13.341708 13,000 228 326 -2688
2019-10-18 01:01:34 GMT 51.821533 13.347549 13,025 228 326 -2688
2019-10-18 01:01:31 GMT 51.825027 13.353436 13,200 228 326 -2752
2019-10-18 01:01:28 GMT 51.827637 13.358113 13,275 228 327 -2688
2019-10-18 01:01:25 GMT 51.834194 13.369827 13,475 228 328 -2624
2019-10-18 01:01:19 GMT 51.836987 13.374557 13,725 228 331 -2368
2019-10-18 01:01:16 GMT 51.840637 13.380828 13,825 228 330 -2432
2019-10-18 01:01:13 GMT 51.843063 13.385208 13,925 228 331 -2368
2019-10-18 01:01:10 GMT 51.845627 13.389587 14,025 228 331 -2368
2019-10-18 01:01:06 GMT 51.850616 13.398347 14,500 228 336 -2496
2019-10-18 01:01:03 GMT 51.853500 13.403469 14,300 228 334 -2368
2019-10-18 01:01:00 GMT 51.856888 13.409333 14,450 228 336 -2432
2019-10-18 01:00:56 GMT 51.860310 13.415375 14,625 228 337 -2560
2019-10-18 01:00:53 GMT 51.864407 13.422394 14,700 228 337 -2560
2019-10-18 01:00:50 GMT 51.867508 13.427743 14,875 227 339 -2560
2019-10-18 01:00:45 GMT 51.872505 13.436432 15,000 227 339 -2752
2019-10-18 01:00:42 GMT 51.875656 13.441847 15,200 228 341 -2816
2019-10-18 01:00:38 GMT 51.880699 13.450699 15,325 228 341 -2432
2019-10-18 01:00:34 GMT 51.885544 13.459217 15,575 228 344 -1792
2019-10-18 01:00:31 GMT 51.887589 13.462753 15,825 228 346 -1728
2019-10-18 01:00:28 GMT 51.891918 13.470383 15,650 228 346 -1728
2019-10-18 01:00:25 GMT 51.894379 13.474731 15,750 228 346 -1728
2019-10-18 01:00:22 GMT 51.897675 13.480453 15,925 228 348 -1792
2019-10-18 01:00:18 GMT 51.901230 13.486816 15,975 228 348 -1856
2019-10-18 01:00:15 GMT 51.904720 13.492937 16,050 228 349 -1856
2019-10-18 01:00:12 GMT 51.908569 13.499680 16,200 228 350 -1856
2019-10-18 01:00:09 GMT 51.911865 13.505478 16,275 228 351 -1920
2019-10-18 01:00:05 GMT 51.916126 13.513027 16,400 228 351 -2240
2019-10-18 01:00:02 GMT 51.920315 13.520403 16,550 228 351 -2176
2019-10-18 00:59:56 GMT 51.926559 13.531418 16,750 228 353 -2048
2019-10-18 00:59:53 GMT 51.930496 13.538437 16,850 228 353 -2176
2019-10-18 00:59:50 GMT 51.932053 13.541183 16,900 228 353 -2240
2019-10-18 00:59:47 GMT 51.938461 13.552475 17,150 228 353 -2304
2019-10-18 00:59:41 GMT 51.945511 13.564987 17,350 228 353 -2112
2019-10-18 00:59:38 GMT 51.945511 13.564987 17,350 228 353 -2112
2019-10-18 00:59:35 GMT 51.948807 13.570862 17,425 228 354 -1984
2019-10-18 00:59:32 GMT 51.952438 13.577297 17,550 228 354 -2048
2019-10-18 00:59:29 GMT 51.956627 13.584752 17,700 228 355 -2112
2019-10-18 00:59:24 GMT 51.962265 13.594818 17,875 228 356 -1984
2019-10-18 00:59:20 GMT 51.965706 13.600917 17,950 228 356 -1984
2019-10-18 00:59:17 GMT 51.970688 13.609848 18,100 228 358 -1984
2019-10-18 00:59:14 GMT 51.972473 13.612976 18,175 228 358 -1984
2019-10-18 00:59:10 GMT 51.976830 13.620693 18,250 228 358 -1984
2019-10-18 00:59:07 GMT 51.983459 13.632507 18,425 228 360 -1856
2019-10-18 00:59:04 GMT 51.983459 13.632507 18,525 228 361 -1856
2019-10-18 00:59:01 GMT 51.986931 13.638663 18,825 228 363 -1984
2019-10-18 00:58:57 GMT 51.991104 13.646088 18,675 228 362 -2048
2019-10-18 00:58:54 GMT 51.995361 13.653717 18,825 228 363 -1984
2019-10-18 00:58:51 GMT 51.998062 13.658600 18,875 228 363 -1984
2019-10-18 00:58:48 GMT 52.002945 13.667228 19,025 228 364 -2112
2019-10-18 00:58:44 GMT 52.007229 13.674918 19,200 228 365 -2048
2019-10-18 00:58:41 GMT 52.009644 13.679199 19,250 228 366 -2048
2019-10-18 00:58:38 GMT 52.013031 13.685226 19,350 228 366 -2048
2019-10-18 00:58:35 GMT 52.016006 13.690567 19,525 228 366 -2048
2019-10-18 00:58:32 GMT 52.020683 13.698931 19,600 228 367 -1984
2019-10-18 00:58:28 GMT 52.023514 13.703995 19,675 228 367 -1984
2019-10-18 00:58:25 GMT 52.027714 13.711565 19,800 228 368 -1920
2019-10-18 00:58:21 GMT 52.033440 13.721845 19,950 229 369 -1984
2019-10-18 00:58:15 GMT 52.039261 13.732376 20,125 229 371 -2048
2019-10-18 00:58:12 GMT 52.046703 13.745780 20,250 229 371 -2112
2019-10-18 00:58:09 GMT 52.046703 13.745780 20,350 229 371 -2176
2019-10-18 00:58:03 GMT 52.052994 13.757248 20,550 229 372 -2048
2019-10-18 00:58:00 GMT 52.055969 13.762665 20,600 229 373 -1984
2019-10-18 00:57:57 GMT 52.060547 13.770981 20,750 229 374 -1792
2019-10-18 00:57:53 GMT 52.065399 13.779831 20,875 229 376 -2112
2019-10-18 00:57:50 GMT 52.067688 13.784027 20,950 229 376 -2112
2019-10-18 00:57:47 GMT 52.071350 13.790817 21,175 229 376 -2112
2019-10-18 00:57:44 GMT 52.074097 13.795929 21,075 229 376 -2112
2019-10-18 00:57:40 GMT 52.078594 13.804164 21,275 229 377 -2176
2019-10-18 00:57:37 GMT 52.086136 13.817978 21,450 229 378 -2240
2019-10-18 00:57:34 GMT 52.086136 13.817978 21,525 229 379 -2112
2019-10-18 00:57:30 GMT 52.091675 13.828201 21,700 229 379 -2048
2019-10-18 00:57:26 GMT 52.099262 13.842067 21,825 229 380 -2176
2019-10-18 00:57:23 GMT 52.099262 13.842067 21,875 229 381 -2112
2019-10-18 00:57:20 GMT 52.102520 13.848031 21,975 229 381 -2176
2019-10-18 00:57:17 GMT 52.106461 13.855057 22,100 228 381 -2368
2019-10-18 00:57:14 GMT 52.110340 13.862000 22,275 228 381 -2304
2019-10-18 00:57:10 GMT 52.114437 13.869141 22,400 227 382 -2240
2019-10-18 00:57:07 GMT 52.116989 13.873520 22,475 227 381 -2304
2019-10-18 00:57:04 GMT 52.121979 13.882010 22,650 226 382 -2240
2019-10-18 00:57:01 GMT 52.125938 13.888602 22,750 226 383 -2304
2019-10-18 00:56:58 GMT 52.128918 13.893467 22,825 226 383 -2368
2019-10-18 00:56:55 GMT 52.132732 13.899588 22,925 225 383 -2368
2019-10-18 00:56:52 GMT 52.138000 13.907623 23,125 222 383 -2240
2019-10-18 00:56:48 GMT 52.142136 13.913478 23,225 220 384 -2240
2019-10-18 00:56:44 GMT 52.148117 13.921280 23,400 217 385 -2304
2019-10-18 00:56:39 GMT 52.154613 13.928859 23,625 214 386 -2176
2019-10-18 00:56:36 GMT 52.159241 13.933792 24,000 207 389 -2240
2019-10-18 00:56:33 GMT 52.163692 13.938198 23,775 210 388 -2240
2019-10-18 00:56:29 GMT 52.170090 13.943939 23,950 208 389 -2240
2019-10-18 00:56:26 GMT 52.175095 13.948007 24,000 207 389 -2240
2019-10-18 00:56:23 GMT 52.185242 13.955002 24,300 201 391 -2304
2019-10-18 00:56:20 GMT 52.185242 13.955002 24,350 200 392 -2240
2019-10-18 00:56:17 GMT 52.190002 13.957901 24,400 200 393 -2304
2019-10-18 00:56:14 GMT 52.195301 13.960876 24,500 200 393 -2496
2019-10-18 00:56:11 GMT 52.200623 13.964005 24,575 200 393 -2496
2019-10-18 00:56:08 GMT 52.205750 13.966904 24,825 200 393 -2432
2019-10-18 00:56:04 GMT 52.213623 13.971481 24,925 200 393 -2496
2019-10-18 00:56:01 GMT 52.217743 13.973846 25,000 200 393 -2496
2019-10-18 00:55:58 GMT 52.222717 13.976728 25,250 200 394 -2304
2019-10-18 00:55:55 GMT 52.227188 13.979239 25,300 200 394 -2240
2019-10-18 00:55:52 GMT 52.231983 13.981986 25,900 200 395 -2112
2019-10-18 00:55:49 GMT 52.239571 13.986302 25,525 200 395 -2048
2019-10-18 00:55:46 GMT 52.243015 13.988264 25,575 200 396 -2048
2019-10-18 00:55:43 GMT 52.249100 13.991699 25,725 200 398 -2048
2019-10-18 00:55:38 GMT 52.257431 13.996429 25,825 200 398 -1984
2019-10-18 00:55:35 GMT 52.264755 14.000626 26,000 200 400 -2112
2019-10-18 00:55:32 GMT 52.267181 14.001999 26,075 200 400 -2176
2019-10-18 00:55:28 GMT 52.274345 14.006077 26,250 200 402 -2176
2019-10-18 00:55:22 GMT 52.284714 14.011917 26,425 200 403 -2240
2019-10-18 00:55:18 GMT 52.293339 14.016828 26,625 200 404 -2240
2019-10-18 00:55:15 GMT 52.296661 14.018707 26,675 200 404 -2240
2019-10-18 00:55:12 GMT 52.303024 14.022293 26,850 200 404 -2752
2019-10-18 00:55:09 GMT 52.309021 14.025726 27,000 200 404 -2816
2019-10-18 00:55:06 GMT 52.313404 14.028207 27,075 200 404 -2880
2019-10-18 00:55:03 GMT 52.318863 14.031372 27,200 200 404 -2880
2019-10-18 00:55:00 GMT 52.325787 14.035270 27,400 200 405 -2880
2019-10-18 00:54:57 GMT 52.329651 14.037467 27,625 200 406 -2816
2019-10-18 00:54:54 GMT 52.335846 14.040985 27,675 200 406 -2944
2019-10-18 00:54:48 GMT 52.344406 14.045792 27,950 200 407 -2880
2019-10-18 00:54:45 GMT 52.349899 14.048924 28,025 200 407 -2752
2019-10-18 00:54:42 GMT 52.355579 14.052220 28,125 200 408 -2752
2019-10-18 00:54:39 GMT 52.360748 14.055099 28,325 200 409 -2880
2019-10-18 00:54:36 GMT 52.367569 14.058990 28,525 200 409 -2304
2019-10-18 00:54:33 GMT 52.372192 14.061661 28,600 200 412 -1856
2019-10-18 00:54:30 GMT 52.378693 14.065399 28,750 200 413 -1152
2019-10-18 00:54:27 GMT 52.384254 14.068542 28,825 200 414 -704
2019-10-18 00:54:21 GMT 52.393478 14.073868 28,900 200 414 -1024
2019-10-18 00:54:18 GMT 52.406067 14.081116 29,000 200 413 -1024
2019-10-18 00:54:14 GMT 52.406067 14.081116 29,025 200 413 -1024
2019-10-18 00:54:10 GMT 52.413986 14.085617 29,100 200 412 -1024
2019-10-18 00:54:07 GMT 52.419754 14.088974 29,175 200 412 -1024
2019-10-18 00:54:04 GMT 52.425476 14.092255 29,200 200 411 -1024
2019-10-18 00:53:59 GMT 52.433182 14.096715 29,275 200 411 -1024
2019-10-18 00:53:56 GMT 52.438019 14.099426 29,325 200 411 -1024
2019-10-18 00:53:53 GMT 52.443375 14.102554 29,375 200 411 -1024
2019-10-18 00:53:50 GMT 52.450562 14.106674 29,475 200 410 -1024
2019-10-18 00:53:46 GMT 52.457703 14.110718 29,525 200 409 -1024
2019-10-18 00:53:43 GMT 52.462692 14.113617 29,675 200 408 -1024
2019-10-18 00:53:40 GMT 52.466263 14.115601 29,600 200 409 -960
2019-10-18 00:53:37 GMT 52.472843 14.119393 29,625 200 409 -1024
2019-10-18 00:53:34 GMT 52.477127 14.121826 29,850 200 408 -960
2019-10-18 00:53:31 GMT 52.484116 14.125824 29,800 200 408 -960
2019-10-18 00:53:27 GMT 52.490158 14.129333 29,825 200 408 -960
2019-10-18 00:53:24 GMT 52.495331 14.132263 29,875 200 408 -960
2019-10-18 00:53:21 GMT 52.501190 14.135666 30,000 200 408 -960
2019-10-18 00:53:18 GMT 52.513321 14.142609 30,025 200 407 -960
2019-10-18 00:53:14 GMT 52.513321 14.142609 30,100 200 407 -960
2019-10-18 00:53:10 GMT 52.520607 14.146781 30,125 200 407 -960
2019-10-18 00:53:06 GMT 52.528244 14.151154 30,275 200 407 -896
2019-10-18 00:53:02 GMT 52.536758 14.156113 30,225 200 408 -960
2019-10-18 00:52:59 GMT 52.538715 14.157218 30,275 200 408 -960
2019-10-18 00:52:56 GMT 52.544769 14.160749 30,300 200 407 -960
2019-10-18 00:52:53 GMT 52.556671 14.167557 30,425 200 408 -960
2019-10-18 00:52:50 GMT 52.556671 14.167557 30,450 200 408 -960
2019-10-18 00:52:46 GMT 52.562923 14.171186 30,500 200 409 -960
2019-10-18 00:52:43 GMT 52.574654 14.177935 30,625 200 408 -960
2019-10-18 00:52:39 GMT 52.574654 14.177935 30,675 200 408 -960
2019-10-18 00:52:36 GMT 52.580521 14.181366 30,675 200 408 -960
2019-10-18 00:52:33 GMT 52.585686 14.184291 30,700 200 408 -960
2019-10-18 00:52:30 GMT 52.596394 14.190412 31,025 200 408 -960
2019-10-18 00:52:27 GMT 52.596394 14.190412 30,850 200 408 -960
2019-10-18 00:52:24 GMT 52.608124 14.197161 30,950 200 407 -960
2019-10-18 00:52:18 GMT 52.614178 14.200614 31,000 200 407 -960
2019-10-18 00:52:15 GMT 52.618786 14.203282 31,025 200 406 -960
2019-10-18 00:52:12 GMT 52.623917 14.206161 31,050 200 406 -960
2019-10-18 00:52:09 GMT 52.631012 14.210281 31,150 200 406 -960
2019-10-18 00:52:05 GMT 52.637375 14.213867 31,200 200 405 -960
2019-10-18 00:52:02 GMT 52.643227 14.217250 31,225 200 405 -960
2019-10-18 00:51:58 GMT 52.648682 14.220428 31,300 200 405 -960
2019-10-18 00:51:55 GMT 52.656784 14.225082 31,400 200 403 -960
2019-10-18 00:51:52 GMT 52.658730 14.226196 31,400 200 403 -960
2019-10-18 00:51:49 GMT 52.665386 14.230120 31,475 200 404 -960
2019-10-18 00:51:44 GMT 52.672943 14.234467 31,550 200 403 -896
2019-10-18 00:51:41 GMT 52.678047 14.237418 31,650 200 403 -896
2019-10-18 00:51:38 GMT 52.682934 14.240322 31,650 200 403 -896
2019-10-18 00:51:35 GMT 52.689102 14.243851 31,700 200 403 -896
2019-10-18 00:51:32 GMT 52.700684 14.250565 31,775 200 402 -896
2019-10-18 00:51:28 GMT 52.700684 14.250565 31,800 200 402 -896
2019-10-18 00:51:25 GMT 52.707001 14.254227 31,925 200 402 -832
2019-10-18 00:51:21 GMT 52.714542 14.258606 31,925 200 401 -768
2019-10-18 00:51:17 GMT 52.719635 14.261551 31,975 200 401 -704
2019-10-18 00:51:14 GMT 52.725391 14.264884 31,975 200 401 -512
2019-10-18 00:51:11 GMT 52.732224 14.268875 32,000 200 401 0
2019-10-18 00:51:08 GMT 52.735867 14.271005 32,000 200 401 0
2019-10-18 00:51:05 GMT 52.740101 14.273438 32,000 200 401 0
2019-10-18 00:51:02 GMT 52.747238 14.277649 32,000 200 401 0
2019-10-18 00:50:59 GMT 52.758305 14.284031 32,000 200 401 0
2019-10-18 00:50:56 GMT 52.758305 14.284031 32,000 200 401 0
2019-10-18 00:50:53 GMT 52.763515 14.287092 32,000 200 401 0
2019-10-18 00:50:50 GMT 52.768078 14.289760 32,000 200 402 0
2019-10-18 00:50:47 GMT 52.772461 14.292297 32,000 200 401 0
2019-10-18 00:50:44 GMT 52.777855 14.295489 32,000 200 401 64
2019-10-18 00:50:40 GMT 52.784885 14.299491 32,000 200 401 0
2019-10-18 00:50:37 GMT 52.789772 14.302394 32,000 200 401 0
2019-10-18 00:50:34 GMT 52.795033 14.305455 32,000 200 402 0
2019-10-18 00:50:30 GMT 52.801849 14.309387 32,000 200 402 0
2019-10-18 00:50:27 GMT 52.807648 14.312753 32,000 200 402 0
2019-10-18 00:50:23 GMT 52.819565 14.319659 32,000 200 402 0
2019-10-18 00:50:17 GMT 52.825523 14.323111 32,000 200 402 0
2019-10-18 00:50:14 GMT 52.830597 14.326019 32,000 200 402 0
2019-10-18 00:50:11 GMT 52.836742 14.329625 32,000 200 402 64
2019-10-18 00:50:08 GMT 52.841679 14.332450 32,000 200 402 0
2019-10-18 00:50:05 GMT 52.846565 14.335275 32,000 200 402 0
2019-10-18 00:50:01 GMT 52.854294 14.339826 32,000 200 402 0
2019-10-18 00:49:58 GMT 52.858856 14.342416 32,000 200 402 0
2019-10-18 00:49:55 GMT 52.865021 14.346008 32,000 200 403 0
2019-10-18 00:49:52 GMT 52.870285 14.349060 32,000 200 403 0
2019-10-18 00:49:49 GMT 52.873764 14.351120 32,000 200 403 0
2019-10-18 00:49:46 GMT 52.879570 14.354501 32,000 200 403 0
2019-10-18 00:49:42 GMT 52.886810 14.358673 32,000 200 403 0
2019-10-18 00:49:39 GMT 52.891708 14.361572 32,000 200 403 0
2019-10-18 00:49:36 GMT 52.896652 14.364395 32,025 200 405 0
2019-10-18 00:49:33 GMT 52.903336 14.368286 32,000 200 405 0
2019-10-18 00:49:29 GMT 52.909828 14.372158 32,025 200 405 0
2019-10-18 00:49:26 GMT 52.916016 14.375763 32,025 200 405 0
2019-10-18 00:49:23 GMT 52.920399 14.378278 32,025 200 406 0
2019-10-18 00:49:19 GMT 52.927643 14.382553 32,000 200 406 64
2019-10-18 00:49:16 GMT 52.932407 14.385341 32,025 200 406 64
2019-10-18 00:49:13 GMT 52.938263 14.388809 32,000 200 407 64
2019-10-18 00:49:10 GMT 52.944138 14.392247 32,000 200 409 -64
2019-10-18 00:49:07 GMT 52.953030 14.397583 32,000 200 409 0
2019-10-18 00:49:01 GMT 52.958908 14.401016 32,025 200 411 0
2019-10-18 00:48:58 GMT 52.966049 14.405289 32,000 200 410 0
2019-10-18 00:48:54 GMT 52.970673 14.408035 32,025 200 411 0
2019-10-18 00:48:51 GMT 52.978355 14.412571 32,025 200 411 0
2019-10-18 00:48:47 GMT 52.990925 14.419870 32,025 200 411 0
2019-10-18 00:48:43 GMT 52.990925 14.419870 32,000 200 411 0
2019-10-18 00:48:40 GMT 52.996445 14.423141 32,000 200 411 0
2019-10-18 00:48:37 GMT 53.010452 14.431381 32,000 200 411 0
2019-10-18 00:48:33 GMT 53.010452 14.431381 32,000 200 411 0
2019-10-18 00:48:30 GMT 53.014900 14.433995 32,000 200 412 0
2019-10-18 00:48:27 GMT 53.019924 14.436898 32,000 200 412 0
2019-10-18 00:48:24 GMT 53.025326 14.440116 32,000 200 412 0
2019-10-18 00:48:21 GMT 53.032822 14.444510 32,000 200 411 0
2019-10-18 00:48:18 GMT 53.035538 14.446106 32,000 200 411 0
2019-10-18 00:48:15 GMT 53.042679 14.450302 32,000 200 411 0
2019-10-18 00:48:12 GMT 53.046982 14.452820 32,000 200 411 0
2019-10-18 00:48:08 GMT 53.055222 14.457703 32,000 200 411 0
2019-10-18 00:48:03 GMT 53.061630 14.461441 32,000 200 411 0
2019-10-18 00:48:00 GMT 53.067966 14.465149 32,000 200 411 0
2019-10-18 00:47:57 GMT 53.073166 14.468231 32,025 200 411 0
2019-10-18 00:47:53 GMT 53.081772 14.473267 32,025 200 411 0
2019-10-18 00:47:50 GMT 53.087814 14.476852 32,025 200 411 0
2019-10-18 00:47:47 GMT 53.091244 14.478882 32,025 200 411 0
2019-10-18 00:47:44 GMT 53.096420 14.481942 32,025 200 411 0
2019-10-18 00:47:41 GMT 53.101952 14.485231 32,000 200 411 0
2019-10-18 00:47:38 GMT 53.107498 14.488456 32,025 200 411 0
2019-10-18 00:47:35 GMT 53.114475 14.492582 32,025 200 412 64
2019-10-18 00:47:32 GMT 53.118622 14.495047 32,000 200 412 0
2019-10-18 00:47:29 GMT 53.123978 14.498265 32,025 200 411 0
2019-10-18 00:47:26 GMT 53.135056 14.504857 32,025 200 411 0
2019-10-18 00:47:23 GMT 53.135056 14.504857 32,000 200 411 0
2019-10-18 00:47:20 GMT 53.141708 14.508739 32,000 200 411 0
2019-10-18 00:47:17 GMT 53.146736 14.511728 32,000 200 411 0
2019-10-18 00:47:14 GMT 53.150848 14.514117 32,000 200 411 0
2019-10-18 00:47:11 GMT 53.156204 14.517334 32,000 200 411 0
2019-10-18 00:47:07 GMT 53.162659 14.521101 32,000 200 411 0
2019-10-18 00:47:04 GMT 53.168941 14.524814 32,025 200 411 0
2019-10-18 00:47:01 GMT 53.174469 14.528085 32,025 200 411 0
2019-10-18 00:46:57 GMT 53.181461 14.532246 32,025 200 411 0
2019-10-18 00:46:54 GMT 53.187012 14.535540 32,025 200 411 0
2019-10-18 00:46:51 GMT 53.192215 14.538628 32,000 200 411 0
2019-10-18 00:46:48 GMT 53.197769 14.541896 32,000 200 411 0
2019-10-18 00:46:45 GMT 53.203171 14.545035 32,000 200 411 0
2019-10-18 00:46:42 GMT 53.209259 14.548645 32,000 200 411 0
2019-10-18 00:46:39 GMT 53.214249 14.551627 32,000 200 411 0
2019-10-18 00:46:36 GMT 53.219822 14.554946 32,025 200 411 0
2019-10-18 00:46:32 GMT 53.226246 14.558743 32,025 200 411 0
2019-10-18 00:46:29 GMT 53.233978 14.563320 32,000 200 411 0
2019-10-18 00:46:26 GMT 53.236675 14.564882 32,025 200 411 0
2019-10-18 00:46:23 GMT 53.241852 14.568028 32,025 200 411 0
2019-10-18 00:46:19 GMT 53.250641 14.573203 32,025 200 411 0
2019-10-18 00:46:16 GMT 53.254223 14.575384 32,025 200 411 0
2019-10-18 00:46:13 GMT 53.259430 14.578465 32,025 200 411 0
2019-10-18 00:46:10 GMT 53.265884 14.582232 32,025 200 411 0
2019-10-18 00:46:06 GMT 53.278061 14.589530 32,025 200 412 0
2019-10-18 00:46:03 GMT 53.278061 14.589530 32,000 200 412 0
2019-10-18 00:46:00 GMT 53.284149 14.593140 32,025 200 412 0
2019-10-18 00:45:57 GMT 53.289505 14.596357 32,025 200 412 0
2019-10-18 00:45:53 GMT 53.295959 14.600202 32,025 200 412 0
2019-10-18 00:45:50 GMT 53.300583 14.603027 32,025 200 412 0
2019-10-18 00:45:47 GMT 53.307247 14.606969 32,025 200 412 0
2019-10-18 00:45:43 GMT 53.314178 14.611189 32,025 200 412 64
2019-10-18 00:45:40 GMT 53.319580 14.614406 32,000 200 412 0
2019-10-18 00:45:37 GMT 53.325497 14.617956 32,000 200 412 0
2019-10-18 00:45:33 GMT 53.333176 14.622567 32,025 200 412 0
2019-10-18 00:45:28 GMT 53.340363 14.626883 32,025 200 412 0
2019-10-18 00:45:25 GMT 53.351074 14.633318 32,025 200 412 0
2019-10-18 00:45:22 GMT 53.351074 14.633318 32,025 200 412 0
2019-10-18 00:45:18 GMT 53.360596 14.638959 32,025 200 412 0
2019-10-18 00:45:15 GMT 53.365623 14.642029 32,025 200 412 0
2019-10-18 00:45:12 GMT 53.369209 14.644129 32,025 200 412 0
2019-10-18 00:45:08 GMT 53.376526 14.648542 32,025 200 412 0
2019-10-18 00:45:02 GMT 53.387455 14.655196 32,025 200 412 64
2019-10-18 00:44:59 GMT 53.391953 14.657881 32,025 200 412 0
2019-10-18 00:44:56 GMT 53.399979 14.662709 32,025 200 412 0
2019-10-18 00:44:51 GMT 53.405704 14.666183 32,000 200 412 0
2019-10-18 00:44:48 GMT 53.413055 14.670593 32,025 200 412 0
2019-10-18 00:44:45 GMT 53.418457 14.673811 32,000 200 412 0
2019-10-18 00:44:42 GMT 53.423447 14.676871 32,000 200 412 0
2019-10-18 00:44:38 GMT 53.430634 14.681187 32,000 200 413 0
2019-10-18 00:44:35 GMT 53.434570 14.683541 32,000 200 413 0
2019-10-18 00:44:32 GMT 53.443176 14.688799 32,000 200 413 0
2019-10-18 00:44:27 GMT 53.454121 14.695345 32,000 200 412 0
2019-10-18 00:44:21 GMT 53.460754 14.699393 32,000 200 413 0
2019-10-18 00:44:17 GMT 53.467758 14.703585 32,000 200 413 64
2019-10-18 00:44:14 GMT 53.474030 14.707397 32,000 200 413 0
2019-10-18 00:44:11 GMT 53.478142 14.709886 32,000 200 413 0
2019-10-18 00:44:07 GMT 53.487450 14.715540 32,000 200 412 0
2019-10-18 00:44:04 GMT 53.491035 14.717641 32,000 200 412 0
2019-10-18 00:44:01 GMT 53.496597 14.721052 32,000 200 412 0
2019-10-18 00:43:56 GMT 53.509705 14.728869 32,000 200 412 0
2019-10-18 00:43:50 GMT 53.515228 14.732274 32,000 200 412 0
2019-10-18 00:43:46 GMT 53.523834 14.737453 32,000 200 412 0
2019-10-18 00:43:43 GMT 53.533127 14.743025 32,000 200 412 0
2019-10-18 00:43:37 GMT 53.539581 14.746870 32,000 200 412 0
2019-10-18 00:43:34 GMT 53.546036 14.750793 32,000 200 412 0
2019-10-18 00:43:31 GMT 53.551926 14.754316 32,000 200 412 0
2019-10-18 00:43:28 GMT 53.562305 14.760536 32,000 200 412 0
2019-10-18 00:43:25 GMT 53.562305 14.760536 32,000 200 412 0
2019-10-18 00:43:21 GMT 53.568237 14.764134 32,000 200 412 0
2019-10-18 00:43:18 GMT 53.573807 14.767483 32,000 200 411 0
2019-10-18 00:43:15 GMT 53.579533 14.770876 32,000 200 411 0
2019-10-18 00:43:12 GMT 53.585258 14.774349 32,000 200 411 0
2019-10-18 00:43:09 GMT 53.588654 14.776376 32,000 200 411 0
2019-10-18 00:43:06 GMT 53.594196 14.779681 32,000 200 411 0
2019-10-18 00:43:03 GMT 53.604767 14.786028 32,000 200 412 0
2019-10-18 00:43:00 GMT 53.604767 14.786028 32,000 200 412 0
2019-10-18 00:42:57 GMT 53.610855 14.789716 32,000 200 411 0
2019-10-18 00:42:53 GMT 53.617996 14.794033 32,000 200 411 0
2019-10-18 00:42:50 GMT 53.625340 14.798422 32,000 200 411 0
2019-10-18 00:42:47 GMT 53.629074 14.800703 32,000 200 410 0
2019-10-18 00:42:44 GMT 53.634277 14.803835 32,000 200 411 0
2019-10-18 00:42:41 GMT 53.642097 14.808601 32,000 200 411 0
2019-10-18 00:42:38 GMT 53.649220 14.812963 32,000 200 411 0
2019-10-18 00:42:35 GMT 53.655853 14.817025 32,000 201 410 0
2019-10-18 00:42:32 GMT 53.655853 14.817025 32,000 200 410 0
2019-10-18 00:42:28 GMT 53.670456 14.825971 32,025 200 410 0
2019-10-18 00:42:25 GMT 53.670456 14.825971 32,025 200 410 0
2019-10-18 00:42:22 GMT 53.674915 14.828635 32,000 200 410 0
2019-10-18 00:42:19 GMT 53.678455 14.830816 32,000 200 410 0
2019-10-18 00:42:16 GMT 53.682907 14.833583 32,025 200 410 0
2019-10-18 00:42:12 GMT 53.691833 14.838998 32,000 200 410 0
2019-10-18 00:42:09 GMT 53.696609 14.841883 32,025 200 410 0
2019-10-18 00:42:06 GMT 53.700893 14.844549 32,025 200 410 0
2019-10-18 00:42:02 GMT 53.710529 14.850365 32,000 200 410 0
2019-10-18 00:41:59 GMT 53.713898 14.852417 32,000 200 410 0
2019-10-18 00:41:56 GMT 53.727661 14.860705 32,000 200 410 0
2019-10-18 00:41:52 GMT 53.727661 14.860705 32,000 200 410 0
2019-10-18 00:41:49 GMT 53.733170 14.864110 32,025 200 411 0
2019-10-18 00:41:46 GMT 53.737793 14.866935 32,025 200 411 0
2019-10-18 00:41:43 GMT 53.744247 14.870780 32,025 200 411 0
2019-10-18 00:41:39 GMT 53.749924 14.874233 32,025 200 411 0
2019-10-18 00:41:36 GMT 53.755451 14.877669 32,025 200 410 0
2019-10-18 00:41:32 GMT 53.770069 14.886555 32,000 200 411 0
2019-10-18 00:41:28 GMT 53.770069 14.886555 32,000 200 411 0
2019-10-18 00:41:25 GMT 53.773819 14.888829 32,000 200 410 0
2019-10-18 00:41:22 GMT 53.780960 14.893145 32,025 200 410 0
2019-10-18 00:41:19 GMT 53.787201 14.896976 32,025 200 410 64
2019-10-18 00:41:15 GMT 53.792358 14.900129 32,000 200 410 0
2019-10-18 00:41:11 GMT 53.800919 14.905308 32,025 200 410 0
2019-10-18 00:41:08 GMT 53.805355 14.908043 32,000 200 410 0
2019-10-18 00:41:05 GMT 53.810532 14.911194 32,025 200 410 0
2019-10-18 00:41:02 GMT 53.817135 14.915233 32,025 200 410 64
2019-10-18 00:40:59 GMT 53.823029 14.918806 32,025 200 410 0
2019-10-18 00:40:55 GMT 53.828541 14.922180 32,025 201 410 0
2019-10-18 00:40:51 GMT 53.842785 14.930985 32,025 201 410 0
2019-10-18 00:40:48 GMT 53.842785 14.930985 32,025 201 410 0
2019-10-18 00:40:45 GMT 53.846512 14.933323 32,025 200 410 0
2019-10-18 00:40:41 GMT 53.854706 14.938346 32,025 200 410 0
2019-10-18 00:40:38 GMT 53.859169 14.941083 32,025 200 410 0
2019-10-18 00:40:35 GMT 53.864685 14.944467 32,025 200 410 0
2019-10-18 00:40:30 GMT 53.873043 14.949565 32,000 200 410 0
2019-10-18 00:40:27 GMT 53.878769 14.953120 32,000 200 410 0
2019-10-18 00:40:24 GMT 53.883377 14.955947 32,000 201 410 0
2019-10-18 00:40:20 GMT 53.891785 14.961103 32,000 201 410 0
2019-10-18 00:40:17 GMT 53.895527 14.963460 32,000 201 410 0
2019-10-18 00:40:14 GMT 53.901031 14.966832 32,000 201 410 0
2019-10-18 00:40:10 GMT 53.909027 14.971780 32,000 201 410 0
2019-10-18 00:40:07 GMT 53.913311 14.974446 32,000 201 410 0
2019-10-18 00:40:04 GMT 53.918839 14.977897 32,000 201 410 0
2019-10-18 00:40:00 GMT 53.928131 14.983547 32,000 201 410 0
2019-10-18 00:39:57 GMT 53.931702 14.985744 32,000 200 410 0
2019-10-18 00:39:54 GMT 53.937565 14.989391 32,000 200 410 0
2019-10-18 00:39:50 GMT 53.944687 14.993753 32,000 201 410 0
2019-10-18 00:39:47 GMT 53.950241 14.997201 32,000 201 410 0
2019-10-18 00:39:44 GMT 53.955231 15.000262 32,000 201 410 0
2019-10-18 00:39:39 GMT 53.964333 15.005870 32,000 201 410 0
2019-10-18 00:39:36 GMT 53.972153 15.010798 32,000 201 410 64
2019-10-18 00:39:33 GMT 53.973923 15.011848 32,000 201 410 64
2019-10-18 00:39:30 GMT 53.980019 15.015645 32,000 200 411 0
2019-10-18 00:39:27 GMT 53.990891 15.022313 32,000 200 411 0
2019-10-18 00:39:24 GMT 53.990891 15.022313 32,000 200 411 64
2019-10-18 00:39:21 GMT 53.997150 15.026146 32,000 201 411 64
2019-10-18 00:39:18 GMT 54.001759 15.029055 32,000 201 411 0
2019-10-18 00:39:14 GMT 54.009628 15.033901 32,000 201 411 0
2019-10-18 00:39:11 GMT 54.015152 15.037301 32,000 201 411 0
2019-10-18 00:39:08 GMT 54.019775 15.040205 32,000 201 411 0
2019-10-18 00:39:05 GMT 54.025497 15.043736 32,000 201 411 0
2019-10-18 00:39:01 GMT 54.033180 15.048442 32,000 201 411 0
2019-10-18 00:38:58 GMT 54.037792 15.051350 32,000 201 410 0
2019-10-18 00:38:55 GMT 54.045284 15.055955 32,000 201 411 -64
2019-10-18 00:38:52 GMT 54.047104 15.057086 32,000 201 410 -64
2019-10-18 00:38:48 GMT 54.056534 15.062962 32,025 201 410 0
2019-10-18 00:38:45 GMT 54.060791 15.065630 32,025 201 410 0
2019-10-18 00:38:42 GMT 54.065094 15.068220 32,025 201 410 0
2019-10-18 00:38:38 GMT 54.072380 15.072757 32,025 201 410 0
2019-10-18 00:38:35 GMT 54.079826 15.077443 32,025 201 410 0
2019-10-18 00:38:32 GMT 54.082340 15.078978 32,025 201 410 0
2019-10-18 00:38:29 GMT 54.089092 15.083178 32,025 201 410 0
2019-10-18 00:38:25 GMT 54.096039 15.087446 32,025 201 410 0
2019-10-18 00:38:22 GMT 54.101028 15.090585 32,025 201 410 0
2019-10-18 00:38:18 GMT 54.114697 15.099092 32,025 201 410 0
2019-10-18 00:38:15 GMT 54.114697 15.099092 32,025 201 410 0
2019-10-18 00:38:12 GMT 54.118103 15.101179 32,025 201 410 0
2019-10-18 00:38:08 GMT 54.125931 15.106044 32,025 201 410 0
2019-10-18 00:38:05 GMT 54.131081 15.109271 32,025 201 410 0
2019-10-18 00:38:02 GMT 54.136436 15.112583 32,025 201 410 0
2019-10-18 00:37:58 GMT 54.143883 15.117268 32,025 201 410 0
2019-10-18 00:37:55 GMT 54.150146 15.121111 32,025 201 410 0
2019-10-18 00:37:52 GMT 54.154591 15.123892 32,025 201 410 0
2019-10-18 00:37:48 GMT 54.161713 15.128335 32,025 201 410 0
2019-10-18 00:37:45 GMT 54.166855 15.131548 32,025 201 410 0
2019-10-18 00:37:42 GMT 54.172577 15.135080 32,025 201 410 0
2019-10-18 00:37:38 GMT 54.179543 15.139403 32,025 201 410 0
2019-10-18 00:37:35 GMT 54.185921 15.143442 32,025 201 410 0
2019-10-18 00:37:32 GMT 54.190384 15.146223 32,025 201 410 0
2019-10-18 00:37:27 GMT 54.199097 15.151681 32,025 201 410 0
2019-10-18 00:37:24 GMT 54.208359 15.157417 32,025 201 410 0
2019-10-18 00:37:18 GMT 54.221008 15.165370 32,025 201 410 0
2019-10-18 00:37:15 GMT 54.221008 15.165370 32,025 201 410 0
2019-10-18 00:37:12 GMT 54.226730 15.168902 32,025 201 410 0
2019-10-18 00:37:09 GMT 54.240108 15.177208 32,025 201 410 0
2019-10-18 00:37:04 GMT 54.240108 15.177208 32,025 201 411 0
2019-10-18 00:37:01 GMT 54.245415 15.180601 32,025 201 411 0
2019-10-18 00:36:56 GMT 54.254150 15.186009 32,025 201 411 0
2019-10-18 00:36:53 GMT 54.260403 15.189972 32,025 201 411 0
2019-10-18 00:36:50 GMT 54.263763 15.192051 32,025 201 410 0
2019-10-18 00:36:47 GMT 54.269669 15.195707 32,025 201 411 0
2019-10-18 00:36:44 GMT 54.275894 15.199663 32,025 201 411 0
2019-10-18 00:36:41 GMT 54.281029 15.202914 32,025 201 411 0
2019-10-18 00:36:38 GMT 54.286926 15.206613 32,025 201 411 0
2019-10-18 00:36:35 GMT 54.290989 15.209156 32,025 201 410 0
2019-10-18 00:36:31 GMT 54.299377 15.214368 32,025 201 410 0
2019-10-18 00:36:28 GMT 54.304535 15.217646 32,025 201 410 0
2019-10-18 00:36:24 GMT 54.312683 15.222806 32,025 201 410 0
2019-10-18 00:36:21 GMT 54.316406 15.225112 32,025 201 410 0
2019-10-18 00:36:18 GMT 54.322815 15.229151 32,025 201 410 0
2019-10-18 00:36:13 GMT 54.331696 15.234725 32,025 201 410 0
2019-10-18 00:36:10 GMT 54.335445 15.237122 32,025 201 410 64
2019-10-18 00:36:07 GMT 54.342522 15.241616 32,025 201 409 0
2019-10-18 00:36:03 GMT 54.349091 15.245711 32,025 201 409 0
2019-10-18 00:35:59 GMT 54.355453 15.249750 32,025 201 409 0
2019-10-18 00:35:56 GMT 54.361862 15.253790 32,025 201 409 0
2019-10-18 00:35:53 GMT 54.367905 15.257586 32,025 201 409 0
2019-10-18 00:35:50 GMT 54.374084 15.261591 32,025 201 410 0
2019-10-18 00:35:47 GMT 54.377621 15.263755 32,025 201 409 0
2019-10-18 00:35:44 GMT 54.382095 15.266553 32,025 201 409 0
2019-10-18 00:35:40 GMT 54.390053 15.271662 32,025 201 409 0
2019-10-18 00:35:37 GMT 54.395187 15.274874 32,000 201 409 64
2019-10-18 00:35:32 GMT 54.410255 15.284396 32,000 201 409 0
2019-10-18 00:35:29 GMT 54.415237 15.287559 32,000 201 409 0
2019-10-18 00:35:24 GMT 54.417706 15.289140 32,000 201 409 0
2019-10-18 00:35:20 GMT 54.424828 15.293635 32,000 201 409 0
2019-10-18 00:35:17 GMT 54.431717 15.298058 32,000 201 409 0
2019-10-18 00:35:11 GMT 54.440746 15.303789 32,000 201 409 0
2019-10-18 00:35:08 GMT 54.448380 15.308560 32,000 201 409 0
2019-10-18 00:35:05 GMT 54.451733 15.310697 32,000 201 409 0
2019-10-18 00:35:02 GMT 54.457581 15.314376 32,000 201 409 0
2019-10-18 00:34:59 GMT 54.461517 15.316880 32,000 201 409 0
2019-10-18 00:34:52 GMT 54.474609 15.325120 32,000 201 409 0
2019-10-18 00:34:49 GMT 54.479919 15.328432 32,000 201 409 0
2019-10-18 00:34:44 GMT 54.495850 15.338530 32,000 201 409 0
2019-10-18 00:34:41 GMT 54.498520 15.340243 32,000 201 409 0
2019-10-18 00:34:35 GMT 54.511272 15.348233 32,000 201 408 0
2019-10-18 00:34:31 GMT 54.511272 15.348233 32,000 201 408 0
2019-10-18 00:34:28 GMT 54.518509 15.352828 32,000 201 408 0
2019-10-18 00:34:25 GMT 54.522213 15.355141 32,000 201 408 0
2019-10-18 00:34:21 GMT 54.529289 15.359636 32,000 201 408 0
2019-10-18 00:34:18 GMT 54.533897 15.362549 32,000 201 408 0
2019-10-18 00:34:08 GMT 54.559479 15.378759 32,000 201 407 0
2019-10-18 00:34:05 GMT 54.564423 15.381829 32,000 201 407 0
2019-10-18 00:34:01 GMT 54.566345 15.383107 32,000 201 407 0
2019-10-18 00:33:54 GMT 54.584312 15.394509 32,000 201 407 0
2019-10-18 00:33:48 GMT 54.587311 15.396450 31,975 201 407 0
2019-10-18 00:33:45 GMT 54.592789 15.399919 31,975 201 407 64
2019-10-18 00:33:38 GMT 54.605122 15.407826 31,975 201 407 0
2019-10-18 00:33:35 GMT 54.612671 15.412687 31,975 201 407 0
2019-10-18 00:33:31 GMT 54.619034 15.416727 31,975 201 407 0
2019-10-18 00:33:27 GMT 54.623791 15.419811 31,975 201 407 0
2019-10-18 00:33:24 GMT 54.630447 15.424056 31,975 201 407 0
2019-10-18 00:33:17 GMT 54.641235 15.430863 31,975 201 406 0
2019-10-18 00:33:13 GMT 54.648972 15.435791 31,975 201 406 0
2019-10-18 00:33:10 GMT 54.654423 15.439203 31,975 201 406 0
2019-10-18 00:33:07 GMT 54.659866 15.442657 31,975 201 406 0
2019-10-18 00:33:04 GMT 54.672718 15.450856 31,975 201 405 0
2019-10-18 00:33:00 GMT 54.672718 15.450856 31,975 201 405 0
2019-10-18 00:32:57 GMT 54.677490 15.453805 31,975 201 405 0
2019-10-18 00:32:54 GMT 54.682587 15.457098 31,975 201 405 0
2019-10-18 00:32:49 GMT 54.690491 15.462126 31,975 201 406 0
2019-10-18 00:32:46 GMT 54.698040 15.466919 31,975 201 406 0
2019-10-18 00:32:42 GMT 54.703857 15.470608 31,975 201 405 0
2019-10-18 00:32:38 GMT 54.710705 15.474992 32,000 201 404 0
2019-10-18 00:32:35 GMT 54.714893 15.477656 32,000 201 404 0
2019-10-18 00:32:30 GMT 54.730675 15.487726 32,000 201 404 0
2019-10-18 00:32:27 GMT 54.730675 15.487726 32,000 201 404 0
2019-10-18 00:32:24 GMT 54.735935 15.491056 32,000 201 404 0
2019-10-18 00:32:16 GMT 54.756409 15.504213 32,000 201 404 0
2019-10-18 00:32:13 GMT 54.761818 15.507702 32,025 201 404 0
2019-10-18 00:32:07 GMT 54.766891 15.510999 32,000 201 404 0
2019-10-18 00:32:04 GMT 54.771103 15.513665 32,000 201 404 0
2019-10-18 00:31:58 GMT 54.780167 15.519643 32,000 201 404 64
2019-10-18 00:31:55 GMT 54.785385 15.523116 32,000 201 404 0
2019-10-18 00:31:48 GMT 54.811203 15.540484 32,000 202 405 0
2019-10-18 00:31:45 GMT 54.811203 15.540484 32,000 202 405 0
2019-10-18 00:31:37 GMT 54.817635 15.544988 32,000 202 406 0
2019-10-18 00:31:31 GMT 54.834503 15.556883 32,000 203 406 0
2019-10-18 00:31:25 GMT 54.837982 15.559387 32,000 203 406 0
2019-10-18 00:31:22 GMT 54.843983 15.563798 32,025 205 406 0
2019-10-18 00:31:19 GMT 54.848499 15.567211 32,025 204 406 0
2019-10-18 00:31:15 GMT 54.855343 15.572454 32,025 205 406 0
2019-10-18 00:31:12 GMT 54.860416 15.576616 32,025 206 406 0
2019-10-18 00:31:06 GMT 54.876850 15.590682 32,025 208 405 64
2019-10-18 00:31:03 GMT 54.882481 15.595842 32,000 209 405 -64
2019-10-18 00:30:55 GMT 54.889206 15.602202 32,025 210 405 64
2019-10-18 00:30:52 GMT 54.893784 15.606645 32,000 210 405 64
2019-10-18 00:30:47 GMT 54.901337 15.613834 32,000 210 408 0
2019-10-18 00:30:43 GMT 54.908409 15.620644 32,025 210 407 0
2019-10-18 00:30:35 GMT 54.922028 15.633868 32,000 210 408 0
2019-10-18 00:30:32 GMT 54.926331 15.637988 32,000 210 408 0
2019-10-18 00:30:23 GMT 54.942627 15.653770 32,000 210 410 0
2019-10-18 00:30:17 GMT 54.951241 15.662093 31,975 210 411 -64
2019-10-18 00:30:10 GMT 54.970322 15.680641 32,025 210 411 0
2019-10-18 00:30:07 GMT 54.974670 15.684922 32,000 210 413 128
2019-10-18 00:30:02 GMT 54.977169 15.687311 32,000 210 413 128
2019-10-18 00:29:54 GMT 54.989319 15.699140 32,000 210 415 0
2019-10-18 00:29:51 GMT 54.993668 15.703421 32,000 210 415 0
2019-10-18 00:29:44 GMT 55.006870 15.716359 31,975 210 416 0
2019-10-18 00:29:41 GMT 55.011196 15.720603 31,975 210 416 0
2019-10-18 00:29:34 GMT 55.022606 15.731756 32,000 210 416 0
2019-10-18 00:29:31 GMT 55.028934 15.737915 32,000 210 416 0
2019-10-18 00:29:23 GMT 55.045853 15.754395 31,975 210 415 0
2019-10-18 00:29:11 GMT 55.062778 15.770874 32,000 210 415 -128
2019-10-18 00:29:00 GMT 55.086567 15.793762 32,000 209 415 0
2019-10-18 00:28:53 GMT 55.091446 15.798421 32,025 209 414 0
2019-10-18 00:28:49 GMT 55.097809 15.804560 32,000 209 414 0
2019-10-18 00:28:43 GMT 55.108727 15.814903 32,025 209 414 -64
2019-10-18 00:28:40 GMT 55.114929 15.820797 32,025 209 414 0
2019-10-18 00:28:36 GMT 55.120010 15.825644 32,025 209 415 0
2019-10-18 00:28:29 GMT 55.139359 15.843867 32,025 209 415 0
2019-10-18 00:28:22 GMT 55.144104 15.848361 32,025 209 415 0
2019-10-18 00:28:19 GMT 55.149178 15.853105 32,025 209 415 0
2019-10-18 00:28:12 GMT 55.160477 15.863773 32,000 209 416 0
2019-10-18 00:28:09 GMT 55.167427 15.870334 32,000 209 417 0
2019-10-18 00:28:01 GMT 55.179207 15.881736 32,025 210 416 0
2019-10-18 00:27:57 GMT 55.185581 15.887978 32,000 210 417 0
2019-10-18 00:27:52 GMT 55.194614 15.896801 32,000 210 417 0
2019-10-18 00:27:47 GMT 55.209091 15.910950 32,000 210 417 0
2019-10-18 00:27:41 GMT 55.212936 15.914746 32,000 210 418 0
2019-10-18 00:27:37 GMT 55.219025 15.920644 32,000 210 418 0
2019-10-18 00:27:31 GMT 55.229298 15.930675 32,000 210 418 0
2019-10-18 00:27:28 GMT 55.236324 15.937583 32,000 210 418 0
2019-10-18 00:27:20 GMT 55.247269 15.948352 32,000 210 418 0
2019-10-18 00:27:17 GMT 55.253677 15.954653 32,000 210 418 64
2019-10-18 00:27:11 GMT 55.263279 15.964050 31,975 210 420 0
2019-10-18 00:27:07 GMT 55.270569 15.971132 31,975 210 419 64
2019-10-18 00:27:01 GMT 55.280365 15.980745 31,975 210 419 0
2019-10-18 00:26:57 GMT 55.288651 15.988853 32,000 210 419 0
2019-10-18 00:26:50 GMT 55.297897 15.997952 32,000 210 419 0
2019-10-18 00:26:45 GMT 55.307693 16.007647 31,975 210 419 0
2019-10-18 00:26:40 GMT 55.314625 16.014488 31,975 210 419 0
2019-10-18 00:26:35 GMT 55.323578 16.023317 31,975 210 419 0
2019-10-18 00:26:30 GMT 55.331848 16.031466 31,950 210 420 0
2019-10-18 00:26:26 GMT 55.340469 16.039957 31,975 210 420 0
2019-10-18 00:26:21 GMT 55.348572 16.048037 32,000 210 420 0
2019-10-18 00:26:15 GMT 55.358002 16.057407 32,000 210 419 0
2019-10-18 00:26:08 GMT 55.369812 16.069201 31,975 210 420 0
2019-10-18 00:26:05 GMT 55.375378 16.074745 31,975 210 420 0
2019-10-18 00:26:00 GMT 55.383430 16.082903 31,975 210 420 0
2019-10-18 00:25:55 GMT 55.392334 16.091902 31,975 210 420 64
2019-10-18 00:25:50 GMT 55.400234 16.099880 31,975 211 420 0
2019-10-18 00:25:43 GMT 55.412476 16.112419 31,975 211 421 0
2019-10-18 00:25:39 GMT 55.417694 16.117777 31,975 211 420 0
2019-10-18 00:25:30 GMT 55.440735 16.141829 31,975 211 421 0
2019-10-18 00:25:27 GMT 55.444565 16.145906 31,975 212 421 0
2019-10-18 00:25:23 GMT 55.447720 16.149216 31,975 212 421 0
2019-10-18 00:25:19 GMT 55.451248 16.152983 31,975 212 421 64
2019-10-18 00:25:12 GMT 55.464989 16.167841 31,975 212 420 0
2019-10-18 00:25:09 GMT 55.468414 16.171625 31,975 213 420 0
2019-10-18 00:25:02 GMT 55.486359 16.192017 31,950 214 420 0
2019-10-18 00:24:59 GMT 55.491577 16.198009 31,975 214 421 0
2019-10-18 00:24:53 GMT 55.494827 16.201754 31,950 214 421 0
2019-10-18 00:24:48 GMT 55.508469 16.217485 31,950 214 421 0
2019-10-18 00:24:41 GMT 55.514008 16.223894 31,975 214 420 0
2019-10-18 00:24:38 GMT 55.517899 16.228388 31,975 214 421 0
2019-10-18 00:24:31 GMT 55.530071 16.242428 31,975 214 420 0
2019-10-18 00:24:28 GMT 55.534149 16.247114 31,975 214 421 -64
2019-10-18 00:24:22 GMT 55.546143 16.261015 32,000 214 419 -64
2019-10-18 00:24:18 GMT 55.550831 16.266460 32,000 214 419 0
2019-10-18 00:24:11 GMT 55.562469 16.279936 32,000 214 419 -64
2019-10-18 00:24:08 GMT 55.567356 16.285515 32,000 214 419 -64
2019-10-18 00:24:01 GMT 55.578716 16.298647 32,025 214 419 -64
2019-10-18 00:23:58 GMT 55.583885 16.304655 32,025 214 419 -64
2019-10-18 00:23:50 GMT 55.595524 16.318130 32,025 214 419 0
2019-10-18 00:23:47 GMT 55.600250 16.323521 32,025 214 419 -64
2019-10-18 00:23:38 GMT 55.616089 16.341913 32,025 214 419 0
2019-10-18 00:23:30 GMT 55.628246 16.355982 32,025 214 420 0
2019-10-18 00:23:27 GMT 55.632935 16.361471 32,025 214 420 0
2019-10-18 00:23:20 GMT 55.645615 16.376204 32,025 214 421 0
2019-10-18 00:23:17 GMT 55.649010 16.380186 32,025 214 421 0
2019-10-18 00:23:09 GMT 55.669006 16.403419 32,025 214 422 0
2019-10-18 00:23:06 GMT 55.674911 16.410246 32,025 214 422 0
2019-10-18 00:22:56 GMT 55.690567 16.428473 32,025 214 423 0
2019-10-18 00:22:49 GMT 55.695465 16.434216 32,025 214 423 0
2019-10-18 00:22:46 GMT 55.699196 16.438551 32,025 214 423 0
2019-10-18 00:22:39 GMT 55.712402 16.454023 32,025 214 423 0
2019-10-18 00:22:36 GMT 55.716019 16.458269 32,025 214 424 0
2019-10-18 00:22:29 GMT 55.729431 16.473915 32,025 214 424 0
2019-10-18 00:22:26 GMT 55.732361 16.477327 32,025 214 424 0
2019-10-18 00:22:19 GMT 55.744953 16.492023 32,025 214 424 0
2019-10-18 00:22:16 GMT 55.748863 16.496658 32,025 214 425 0
2019-10-18 00:22:06 GMT 55.765205 16.515799 32,025 214 425 0
2019-10-18 00:21:56 GMT 55.782394 16.536005 32,000 214 425 0
2019-10-18 00:21:48 GMT 55.794346 16.549959 32,000 214 425 0
2019-10-18 00:21:45 GMT 55.799606 16.556139 32,000 214 425 0
2019-10-18 00:21:38 GMT 55.811874 16.570545 32,000 214 425 0
2019-10-18 00:21:32 GMT 55.828053 16.589527 32,000 214 424 0
2019-10-18 00:21:26 GMT 55.832661 16.594849 32,000 214 424 0
2019-10-18 00:21:18 GMT 55.850906 16.616392 32,000 214 424 0
2019-10-18 00:21:13 GMT 55.859055 16.626005 32,000 214 424 0
2019-10-18 00:21:03 GMT 55.874863 16.644621 32,000 214 423 0
2019-10-18 00:20:58 GMT 55.877472 16.647699 32,000 214 424 64
2019-10-18 00:20:55 GMT 55.882191 16.653299 32,000 214 424 0
2019-10-18 00:20:47 GMT 55.895180 16.668749 32,000 214 424 64
2019-10-18 00:20:44 GMT 55.898941 16.673168 32,000 214 424 64
2019-10-18 00:20:35 GMT 55.915833 16.693226 31,975 214 423 64
2019-10-18 00:20:28 GMT 55.927917 16.707458 31,975 214 423 0
2019-10-18 00:20:24 GMT 55.931629 16.711836 31,975 214 423 0
2019-10-18 00:20:17 GMT 55.943687 16.726084 31,975 214 423 0
2019-10-18 00:20:14 GMT 55.948200 16.731491 31,975 214 422 0
2019-10-18 00:20:07 GMT 55.959934 16.745310 31,950 214 422 0
2019-10-18 00:20:04 GMT 55.964951 16.751238 31,975 214 422 0
2019-10-18 00:19:54 GMT 55.981201 16.770464 31,950 214 422 0
2019-10-18 00:19:46 GMT 55.994289 16.785994 31,950 214 421 0
2019-10-18 00:19:43 GMT 55.998367 16.790771 31,950 214 421 0
2019-10-18 00:19:36 GMT 56.009354 16.803839 31,975 214 420 0
2019-10-18 00:19:33 GMT 56.015331 16.810970 31,975 214 420 0
2019-10-18 00:19:25 GMT 56.032242 16.831139 31,950 214 419 0
2019-10-18 00:19:22 GMT 56.039291 16.839544 31,950 214 419 0
2019-10-18 00:19:12 GMT 56.056202 16.859722 31,950 214 419 0
2019-10-18 00:19:06 GMT 56.059414 16.863585 31,950 214 419 0
2019-10-18 00:19:03 GMT 56.063885 16.868906 31,950 214 418 0
2019-10-18 00:18:58 GMT 56.077385 16.885042 31,950 214 418 0
2019-10-18 00:18:53 GMT 56.081249 16.889677 31,950 214 418 -64
2019-10-18 00:18:44 GMT 56.097748 16.909374 31,975 214 417 -128
2019-10-18 00:18:36 GMT 56.107361 16.920860 32,000 214 416 0
2019-10-18 00:18:32 GMT 56.114365 16.929266 31,975 214 416 0
2019-10-18 00:18:24 GMT 56.126495 16.943748 32,000 214 416 0
2019-10-18 00:18:21 GMT 56.130455 16.948557 32,000 214 416 -64
2019-10-18 00:18:14 GMT 56.141785 16.962057 32,000 214 415 0
2019-10-18 00:18:10 GMT 56.147026 16.968384 32,000 214 415 0
2019-10-18 00:18:05 GMT 56.155792 16.978870 32,000 214 415 0
2019-10-18 00:17:58 GMT 56.173325 16.999928 32,025 214 415 0
2019-10-18 00:17:53 GMT 56.175701 17.002802 32,000 214 416 0
2019-10-18 00:17:50 GMT 56.179688 17.007668 32,025 214 416 0
2019-10-18 00:17:43 GMT 56.193420 17.024231 32,025 214 417 0
2019-10-18 00:17:40 GMT 56.195663 17.026894 32,025 214 417 0
2019-10-18 00:17:33 GMT 56.207359 17.040997 32,025 215 424 0
2019-10-18 00:17:30 GMT 56.212200 17.046833 32,025 214 419 0
2019-10-18 00:17:24 GMT 56.229080 17.067179 32,025 214 421 64
2019-10-18 00:17:20 GMT 56.229080 17.067179 32,025 214 421 64
2019-10-18 00:17:13 GMT 56.239571 17.079878 32,025 214 422 0
2019-10-18 00:17:09 GMT 56.245560 17.087152 32,000 215 423 0
2019-10-18 00:17:01 GMT 56.258514 17.102882 32,000 214 424 0
2019-10-18 00:16:58 GMT 56.262894 17.108202 32,025 215 424 0
2019-10-18 00:16:53 GMT 56.271366 17.118416 32,025 215 424 0
2019-10-18 00:16:49 GMT 56.279469 17.128286 32,025 215 426 0
2019-10-18 00:16:43 GMT 56.292503 17.144079 32,025 215 426 0
2019-10-18 00:16:34 GMT 56.304558 17.158756 32,025 215 427 0
2019-10-18 00:16:30 GMT 56.313538 17.169634 32,000 215 427 0
2019-10-18 00:16:22 GMT 56.322693 17.180786 32,025 215 427 0
2019-10-18 00:16:18 GMT 56.330841 17.190689 32,025 215 427 0
2019-10-18 00:16:10 GMT 56.348511 17.212082 32,025 214 427 0
2019-10-18 00:16:06 GMT 56.354557 17.219439 32,025 214 427 0
2019-10-18 00:16:00 GMT 56.358837 17.224588 32,025 214 427 0
2019-10-18 00:15:55 GMT 56.366867 17.234386 32,025 214 427 0
2019-10-18 00:15:52 GMT 56.371124 17.239546 32,025 214 427 0
2019-10-18 00:15:49 GMT 56.376343 17.245872 32,025 215 428 0
2019-10-18 00:15:43 GMT 56.386505 17.258272 32,025 215 428 0
2019-10-18 00:15:39 GMT 56.392590 17.265615 32,025 215 428 0
2019-10-18 00:15:35 GMT 56.399277 17.273754 32,025 215 428 0
2019-10-18 00:15:32 GMT 56.405346 17.281151 32,025 215 428 0
2019-10-18 00:15:29 GMT 56.409302 17.285957 32,025 215 428 0
2019-10-18 00:15:25 GMT 56.415985 17.294146 32,025 215 428 0
2019-10-18 00:15:21 GMT 56.422577 17.302135 32,025 215 428 0
2019-10-18 00:15:18 GMT 56.426468 17.306961 32,025 215 428 0
2019-10-18 00:15:15 GMT 56.432529 17.314367 32,025 215 428 0
2019-10-18 00:15:09 GMT 56.442902 17.326939 32,025 214 429 64
2019-10-18 00:15:04 GMT 56.449291 17.334709 32,025 214 429 64
2019-10-18 00:15:01 GMT 56.455853 17.342777 32,000 215 429 0
2019-10-18 00:14:58 GMT 56.460297 17.348162 32,000 215 429 0
2019-10-18 00:14:54 GMT 56.466049 17.355223 32,000 215 429 64
2019-10-18 00:14:48 GMT 56.476044 17.367470 32,000 215 429 64
2019-10-18 00:14:41 GMT 56.488068 17.382174 31,975 215 430 64
2019-10-18 00:14:38 GMT 56.492798 17.388027 31,975 215 430 0
2019-10-18 00:14:32 GMT 56.504456 17.402344 31,975 215 431 0
2019-10-18 00:14:28 GMT 56.509232 17.408253 31,975 215 431 0
2019-10-18 00:14:21 GMT 56.520401 17.422070 31,975 215 431 0
2019-10-18 00:14:17 GMT 56.526474 17.429552 31,975 215 431 0
2019-10-18 00:14:11 GMT 56.537319 17.442942 31,975 215 431 0
2019-10-18 00:14:08 GMT 56.543060 17.450033 31,950 215 431 64
2019-10-18 00:14:00 GMT 56.554230 17.463766 31,975 215 431 0
2019-10-18 00:13:57 GMT 56.560181 17.471008 31,975 215 431 64
2019-10-18 00:13:50 GMT 56.570709 17.483992 31,975 215 431 0
2019-10-18 00:13:46 GMT 56.577255 17.492065 31,975 215 430 0
2019-10-18 00:13:40 GMT 56.588619 17.505941 31,950 215 429 0
2019-10-18 00:13:37 GMT 56.593555 17.512030 31,950 215 429 0
2019-10-18 00:13:31 GMT 56.603577 17.524309 31,975 215 429 0
2019-10-18 00:13:26 GMT 56.610268 17.532585 31,975 215 429 0
2019-10-18 00:13:19 GMT 56.623215 17.548599 31,975 215 429 0
2019-10-18 00:13:16 GMT 56.627308 17.553673 31,975 215 429 0
2019-10-18 00:13:09 GMT 56.638760 17.567759 31,975 215 429 0
2019-10-18 00:13:06 GMT 56.643368 17.573429 31,975 215 429 0
2019-10-18 00:12:58 GMT 56.655945 17.588940 31,975 215 428 0
2019-10-18 00:12:55 GMT 56.661335 17.595579 31,975 215 428 0
2019-10-18 00:12:49 GMT 56.672089 17.608957 31,975 215 427 0
2019-10-18 00:12:46 GMT 56.677628 17.615780 31,975 215 427 0
2019-10-18 00:12:38 GMT 56.688663 17.629601 31,975 215 427 0
2019-10-18 00:12:35 GMT 56.694527 17.636866 32,000 215 427 0
2019-10-18 00:12:28 GMT 56.705109 17.649965 31,975 215 427 0
2019-10-18 00:12:25 GMT 56.710819 17.657066 31,975 215 427 0
2019-10-18 00:12:19 GMT 56.721039 17.669878 31,975 215 427 0
2019-10-18 00:12:15 GMT 56.738617 17.691851 32,000 215 427 0
2019-10-18 00:12:08 GMT 56.738617 17.691851 32,000 215 427 0
2019-10-18 00:12:05 GMT 56.742989 17.697290 32,000 215 427 0
2019-10-18 00:11:54 GMT 56.767056 17.727415 32,000 215 427 0
2019-10-18 00:11:48 GMT 56.771118 17.732534 32,000 215 427 0
2019-10-18 00:11:41 GMT 56.780743 17.744514 32,000 215 427 0
2019-10-18 00:11:38 GMT 56.787910 17.753464 32,000 215 428 0
2019-10-18 00:11:32 GMT 56.796524 17.764292 32,000 215 428 0
2019-10-18 00:11:27 GMT 56.804626 17.774506 32,000 215 427 0
2019-10-18 00:11:21 GMT 56.814056 17.786350 32,000 215 427 0
2019-10-18 00:11:17 GMT 56.822525 17.796907 32,000 215 427 0
2019-10-18 00:11:13 GMT 56.827248 17.802902 32,000 215 427 0
2019-10-18 00:11:06 GMT 56.838280 17.816813 32,000 215 428 0
2019-10-18 00:11:01 GMT 56.847244 17.828064 32,000 215 428 0
2019-10-18 00:10:54 GMT 56.860245 17.844458 31,975 215 429 0
2019-10-18 00:10:46 GMT 56.870869 17.857834 32,000 215 429 0
2019-10-18 00:10:43 GMT 56.876907 17.865400 32,000 215 429 0
2019-10-18 00:10:36 GMT 56.887531 17.878742 32,000 215 429 0
2019-10-18 00:10:33 GMT 56.893074 17.885742 31,975 215 429 0
2019-10-18 00:10:27 GMT 56.903175 17.898500 31,975 215 429 0
2019-10-18 00:10:22 GMT 56.910065 17.907095 31,975 215 429 0
2019-10-18 00:10:17 GMT 56.921310 17.921362 31,975 215 429 0
2019-10-18 00:10:06 GMT 56.937332 17.941532 31,975 215 430 0
2019-10-18 00:09:53 GMT 56.958252 17.968054 31,975 215 431 0
2019-10-18 00:09:44 GMT 56.973267 17.987022 31,975 215 431 0
2019-10-18 00:09:36 GMT 56.986038 18.003159 31,975 215 431 0
2019-10-18 00:09:29 GMT 56.997627 18.017843 31,975 215 431 0
2019-10-18 00:09:26 GMT 57.004192 18.026085 31,975 215 431 0
2019-10-18 00:09:22 GMT 57.009083 18.032286 31,975 215 431 0
2019-10-18 00:09:15 GMT 57.020050 18.046246 32,000 215 430 0
2019-10-18 00:09:11 GMT 57.025745 18.053461 32,000 215 430 0
2019-10-18 00:09:01 GMT 57.043213 18.075686 32,000 215 430 0
2019-10-18 00:08:56 GMT 57.049908 18.084116 32,000 215 430 0
2019-10-18 00:08:46 GMT 57.066376 18.105125 32,000 215 429 0
2019-10-18 00:08:32 GMT 57.089539 18.134651 32,000 215 431 0
2019-10-18 00:08:25 GMT 57.102791 18.151541 32,000 215 431 0
2019-10-18 00:07:56 GMT 57.149048 18.210611 32,000 215 432 0
2019-10-18 00:07:44 GMT 57.168686 18.235846 32,000 215 433 0
2019-10-18 00:07:40 GMT 57.174759 18.243595 31,975 215 433 0
2019-10-18 00:07:33 GMT 57.188168 18.260872 31,975 215 433 0
2019-10-18 00:07:23 GMT 57.202274 18.279036 31,975 216 433 0
2019-10-18 00:07:12 GMT 57.221268 18.303577 31,975 216 433 0
2019-10-18 00:07:03 GMT 57.236675 18.323423 31,975 215 434 0
2019-10-18 00:06:53 GMT 57.252735 18.344156 31,975 215 434 0
2019-10-18 00:06:43 GMT 57.269302 18.365536 31,975 215 434 0
2019-10-18 00:06:33 GMT 57.285557 18.386505 31,975 215 434 0
2019-10-18 00:06:22 GMT 57.303246 18.409452 31,975 216 435 0
2019-10-18 00:06:13 GMT 57.319839 18.431025 31,975 216 435 0
2019-10-18 00:06:02 GMT 57.336227 18.452311 31,975 216 435 0
2019-10-18 00:05:52 GMT 57.352451 18.473421 32,000 216 435 0
2019-10-18 00:05:41 GMT 57.370186 18.496368 32,000 216 435 0
2019-10-18 00:05:31 GMT 57.386810 18.517971 32,000 216 435 0
2019-10-18 00:05:22 GMT 57.402878 18.538828 32,000 216 435 0
2019-10-18 00:05:11 GMT 57.419952 18.561144 32,000 216 435 0
2019-10-18 00:05:01 GMT 57.436569 18.582842 32,000 216 436 0
2019-10-18 00:04:50 GMT 57.453552 18.604918 32,000 216 436 0
2019-10-18 00:04:40 GMT 57.469856 18.626257 32,000 216 437 0
2019-10-18 00:04:31 GMT 57.486237 18.647661 31,975 216 437 0
2019-10-18 00:04:21 GMT 57.503235 18.669847 32,000 216 438 0
2019-10-18 00:04:09 GMT 57.521435 18.693680 32,000 216 439 0
2019-10-18 00:03:59 GMT 57.537960 18.715300 32,000 216 438 0
2019-10-18 00:03:50 GMT 57.554352 18.736839 32,000 216 438 0
2019-10-18 00:03:45 GMT 57.561951 18.746796 32,000 216 438 0
2019-10-18 00:03:39 GMT 57.571198 18.758984 32,000 216 438 0
2019-10-18 00:03:28 GMT 57.589371 18.783016 32,000 216 438 0
2019-10-18 00:03:20 GMT 57.607498 18.807049 32,000 216 439 0
2019-10-18 00:03:07 GMT 57.624828 18.830034 32,000 216 439 0
2019-10-18 00:02:59 GMT 57.639542 18.849535 32,000 216 439 0
2019-10-18 00:02:48 GMT 57.655228 18.870348 32,000 216 439 0
2019-10-18 00:02:37 GMT 57.673706 18.894978 32,000 216 440 0
2019-10-18 00:02:27 GMT 57.689533 18.916065 32,000 216 439 0
2019-10-18 00:02:24 GMT 57.695168 18.923508 32,000 216 439 0
2019-10-18 00:02:18 GMT 57.704758 18.936266 32,000 216 440 0
2019-10-18 00:02:08 GMT 57.723240 18.960985 32,000 216 440 0
2019-10-18 00:01:56 GMT 57.740742 18.984375 31,975 216 440 0
2019-10-18 00:01:49 GMT 57.755314 19.003784 32,000 216 440 0
2019-10-18 00:01:46 GMT 57.759598 19.009552 32,000 216 440 0
2019-10-18 00:01:38 GMT 57.771698 19.025661 31,975 216 440 0
2019-10-18 00:01:35 GMT 57.775635 19.030977 32,000 216 440 0
2019-10-18 00:01:28 GMT 57.794323 19.055969 32,000 216 440 0
2019-10-18 00:01:24 GMT 57.794323 19.055969 32,000 216 440 0
2019-10-18 00:01:17 GMT 57.808365 19.074835 32,000 216 440 0
2019-10-18 00:01:14 GMT 57.810848 19.078125 32,000 216 440 0
2019-10-18 00:01:07 GMT 57.827377 19.100281 31,975 216 440 0
2019-10-18 00:01:04 GMT 57.827377 19.100281 31,975 216 440 0
2019-10-18 00:00:55 GMT 57.841370 19.119045 32,000 216 440 0
2019-10-18 00:00:45 GMT 57.864944 19.150818 32,000 216 439 0
2019-10-18 00:00:41 GMT 57.864944 19.150818 31,975 216 439 0
2019-10-18 00:00:37 GMT 57.872040 19.160334 31,975 216 439 0
2019-10-18 00:00:33 GMT 57.877792 19.168121 31,975 216 439 0
2019-10-18 00:00:27 GMT 57.888840 19.183016 32,000 216 439 0
2019-10-18 00:00:23 GMT 57.895432 19.191875 31,975 216 440 0
2019-10-18 00:00:15 GMT 57.914757 19.217926 31,975 216 440 0
2019-10-18 00:00:11 GMT 57.914757 19.217926 31,975 216 440 0
2019-10-18 00:00:04 GMT 57.925415 19.232365 31,975 216 440 0
2019-10-17 23:59:55 GMT 57.942127 19.254822 31,975 216 439 0
2019-10-17 23:59:46 GMT 57.956280 19.274048 31,975 216 439 0
2019-10-17 23:59:43 GMT 57.960564 19.279816 31,975 216 439 0
2019-10-17 23:59:36 GMT 57.972759 19.296295 31,975 216 439 0
2019-10-17 23:59:33 GMT 57.977039 19.302063 31,975 216 439 0
2019-10-17 23:59:26 GMT 57.990005 19.319723 31,975 216 439 0
2019-10-17 23:59:22 GMT 57.994629 19.325926 32,000 216 439 0
2019-10-17 23:59:14 GMT 58.009415 19.346039 32,000 216 439 0
2019-10-17 23:59:11 GMT 58.012840 19.350769 32,000 216 439 0
2019-10-17 23:59:04 GMT 58.026340 19.369080 32,000 216 439 0
2019-10-17 23:59:01 GMT 58.030426 19.374655 32,000 216 439 0
2019-10-17 23:58:53 GMT 58.043243 19.392021 32,000 216 439 0
2019-10-17 23:58:50 GMT 58.048637 19.399384 32,000 216 439 0
2019-10-17 23:58:43 GMT 58.059441 19.414215 32,000 216 439 0
2019-10-17 23:58:39 GMT 58.066002 19.423096 32,000 216 439 0
2019-10-17 23:58:33 GMT 58.076523 19.437469 32,000 216 439 0
2019-10-17 23:58:29 GMT 58.082436 19.445526 32,000 216 439 0
2019-10-17 23:58:22 GMT 58.093609 19.460724 32,000 216 439 0
2019-10-17 23:58:18 GMT 58.100647 19.470430 32,000 216 439 0
2019-10-17 23:58:13 GMT 58.109848 19.483013 32,000 216 439 0
2019-10-17 23:58:07 GMT 58.119213 19.495789 32,000 216 439 0
2019-10-17 23:58:02 GMT 58.126602 19.505960 32,000 216 439 0
2019-10-17 23:57:52 GMT 58.143356 19.528908 31,975 216 441 0
2019-10-17 23:57:44 GMT 58.157337 19.548065 32,000 216 441 0
2019-10-17 23:57:41 GMT 58.160431 19.552385 31,975 217 440 0
2019-10-17 23:57:32 GMT 58.177551 19.575865 31,975 217 440 0
2019-10-17 23:57:21 GMT 58.193790 19.598328 31,975 217 440 0
2019-10-17 23:57:17 GMT 58.201702 19.609222 31,975 217 440 0
2019-10-17 23:57:11 GMT 58.210873 19.621948 31,975 217 440 0
2019-10-17 23:57:06 GMT 58.218460 19.632385 31,975 217 440 0
2019-10-17 23:57:01 GMT 58.227631 19.645111 31,975 217 441 0
2019-10-17 23:56:50 GMT 58.244762 19.668732 31,975 217 441 0
2019-10-17 23:56:43 GMT 58.259193 19.688690 31,975 217 440 0
2019-10-17 23:56:40 GMT 58.261642 19.692106 31,975 217 440 0
2019-10-17 23:56:33 GMT 58.274975 19.710571 31,975 217 440 0
2019-10-17 23:56:29 GMT 58.279083 19.716295 31,975 217 440 0
2019-10-17 23:56:22 GMT 58.296295 19.740234 31,975 217 440 0
2019-10-17 23:56:19 GMT 58.296295 19.740234 31,975 217 440 0
2019-10-17 23:56:12 GMT 58.308121 19.756622 31,975 217 440 0
2019-10-17 23:56:08 GMT 58.313057 19.763397 31,975 217 440 0
2019-10-17 23:56:05 GMT 58.320145 19.773176 32,000 217 440 0
2019-10-17 23:56:02 GMT 58.324879 19.779785 31,975 217 440 0
2019-10-17 23:55:58 GMT 58.329666 19.786377 31,975 217 440 0
2019-10-17 23:55:54 GMT 58.337540 19.797363 31,975 217 440 0
2019-10-17 23:55:51 GMT 58.342804 19.804628 31,975 217 440 0
2019-10-17 23:55:48 GMT 58.346054 19.809147 32,000 217 440 0
2019-10-17 23:55:45 GMT 58.352158 19.817596 32,000 217 440 0
2019-10-17 23:55:41 GMT 58.359375 19.827667 31,975 217 440 0
2019-10-17 23:55:38 GMT 58.365612 19.836365 32,000 217 440 0
2019-10-17 23:55:32 GMT 58.374619 19.848928 32,000 217 441 0
2019-10-17 23:55:28 GMT 58.381165 19.858053 32,000 217 441 0
2019-10-17 23:55:24 GMT 58.387585 19.867035 32,000 217 441 0
2019-10-17 23:55:21 GMT 58.392014 19.873203 32,000 217 441 0
2019-10-17 23:55:17 GMT 58.397781 19.881226 32,000 217 441 0
2019-10-17 23:55:13 GMT 58.404343 19.890381 32,000 217 441 0
2019-10-17 23:55:08 GMT 58.415146 19.905579 32,000 217 442 0
2019-10-17 23:55:02 GMT 58.421539 19.914579 32,000 217 442 0
2019-10-17 23:54:57 GMT 58.433208 19.930847 32,000 217 442 0
2019-10-17 23:54:50 GMT 58.442051 19.943298 32,000 217 442 0
2019-10-17 23:54:46 GMT 58.448990 19.953003 32,000 217 442 0
2019-10-17 23:54:41 GMT 58.457336 19.964815 32,000 217 442 0
2019-10-17 23:54:36 GMT 58.466858 19.978195 32,000 217 442 0
2019-10-17 23:54:30 GMT 58.475098 19.989714 32,000 217 442 0
2019-10-17 23:54:27 GMT 58.482132 19.999695 32,000 217 442 0
2019-10-17 23:54:24 GMT 58.484619 20.003092 32,000 217 442 0
2019-10-17 23:54:21 GMT 58.489395 20.009857 32,000 217 442 0
2019-10-17 23:54:17 GMT 58.497437 20.021166 32,000 217 442 0
2019-10-17 23:54:12 GMT 58.505501 20.032562 32,000 217 443 0
2019-10-17 23:54:06 GMT 58.514347 20.045013 32,000 217 443 0
2019-10-17 23:54:01 GMT 58.522430 20.056429 32,000 217 443 0
2019-10-17 23:53:56 GMT 58.531155 20.068726 32,000 217 443 0
2019-10-17 23:53:51 GMT 58.539673 20.080811 32,000 217 443 0
2019-10-17 23:53:45 GMT 58.548386 20.093107 32,000 217 444 0
2019-10-17 23:53:40 GMT 58.557587 20.106133 32,000 217 443 0
2019-10-17 23:53:35 GMT 58.565323 20.117065 32,000 217 443 0
2019-10-17 23:53:29 GMT 58.575191 20.131073 32,000 217 443 0
2019-10-17 23:53:25 GMT 58.582409 20.141235 32,000 217 443 0
2019-10-17 23:53:18 GMT 58.592422 20.155481 32,000 217 443 0
2019-10-17 23:53:15 GMT 58.598839 20.164490 32,000 217 443 0
2019-10-17 23:53:08 GMT 58.610012 20.180328 32,000 217 443 0
2019-10-17 23:53:04 GMT 58.615646 20.188293 32,000 217 443 0
2019-10-17 23:52:55 GMT 58.633057 20.212921 32,000 217 443 0
2019-10-17 23:52:48 GMT 58.643250 20.227386 32,000 217 444 0
2019-10-17 23:52:44 GMT 58.649490 20.236267 32,000 217 444 0
2019-10-17 23:52:37 GMT 58.660660 20.252197 32,000 217 443 0
2019-10-17 23:52:34 GMT 58.666248 20.260162 32,000 217 443 0
2019-10-17 23:52:27 GMT 58.677246 20.275801 32,000 217 443 0
2019-10-17 23:52:23 GMT 58.683517 20.284660 32,000 217 443 0
2019-10-17 23:52:17 GMT 58.694180 20.299988 32,000 217 443 0
2019-10-17 23:52:14 GMT 58.700092 20.308411 32,000 217 443 0
2019-10-17 23:52:06 GMT 58.710754 20.323645 32,000 217 443 0
2019-10-17 23:52:03 GMT 58.716339 20.331705 32,000 217 443 0
2019-10-17 23:51:57 GMT 58.727650 20.347870 32,000 217 444 0
2019-10-17 23:51:53 GMT 58.733414 20.356159 32,000 217 444 0
2019-10-17 23:51:46 GMT 58.744904 20.372639 32,000 217 444 0
2019-10-17 23:51:43 GMT 58.750488 20.380613 32,000 217 444 0
2019-10-17 23:51:36 GMT 58.761337 20.396208 32,000 217 444 0
2019-10-17 23:51:32 GMT 58.768059 20.405823 32,000 217 444 0
2019-10-17 23:51:25 GMT 58.778412 20.420750 32,000 217 444 0
2019-10-17 23:51:21 GMT 58.785793 20.431366 32,000 217 444 0
2019-10-17 23:51:16 GMT 58.795166 20.444759 32,000 217 444 0
2019-10-17 23:51:11 GMT 58.802399 20.455214 32,000 217 444 0
2019-10-17 23:51:05 GMT 58.811722 20.468628 32,000 217 444 0
2019-10-17 23:51:02 GMT 58.817635 20.477142 31,975 217 444 0
2019-10-17 23:50:59 GMT 58.820938 20.481903 32,000 217 444 0
2019-10-17 23:50:55 GMT 58.828629 20.492956 32,000 217 444 0
2019-10-17 23:50:50 GMT 58.837509 20.505716 32,000 217 444 0
2019-10-17 23:50:44 GMT 58.845383 20.517056 32,000 217 444 0
2019-10-17 23:50:41 GMT 58.850502 20.524450 32,000 217 444 0
2019-10-17 23:50:38 GMT 58.855225 20.531250 31,975 217 444 0
2019-10-17 23:50:35 GMT 58.862137 20.541229 32,000 217 444 0
2019-10-17 23:50:31 GMT 58.867081 20.548370 32,000 217 444 0
2019-10-17 23:50:28 GMT 58.873123 20.557125 31,975 217 444 0
2019-10-17 23:50:24 GMT 58.879532 20.566406 31,975 217 445 0
2019-10-17 23:50:21 GMT 58.884476 20.573456 31,975 217 445 0
2019-10-17 23:50:17 GMT 58.892490 20.585159 31,975 217 445 0
2019-10-17 23:50:14 GMT 58.896240 20.590576 31,975 217 444 0
2019-10-17 23:50:11 GMT 58.901009 20.597471 31,975 218 444 0
2019-10-17 23:50:07 GMT 58.907902 20.607510 32,000 217 444 0
2019-10-17 23:50:04 GMT 58.912460 20.614140 31,975 217 444 0
2019-10-17 23:50:00 GMT 58.918373 20.622759 31,975 217 444 0
2019-10-17 23:49:56 GMT 58.924759 20.632050 31,975 217 444 0
2019-10-17 23:49:53 GMT 58.929501 20.638954 31,975 218 444 0
2019-10-17 23:49:50 GMT 58.934437 20.646152 31,975 218 444 0
2019-10-17 23:49:46 GMT 58.942581 20.658085 31,975 218 444 0
2019-10-17 23:49:43 GMT 58.946686 20.664001 31,975 218 444 0
2019-10-17 23:49:40 GMT 58.951427 20.670965 31,975 218 444 0
2019-10-17 23:49:32 GMT 58.963531 20.688677 31,975 218 444 0
2019-10-17 23:49:29 GMT 58.968292 20.695587 31,975 218 444 0
2019-10-17 23:49:24 GMT 58.976936 20.708187 31,975 218 444 0
2019-10-17 23:49:20 GMT 58.996445 20.736694 31,975 217 444 0
2019-10-17 23:49:12 GMT 58.996445 20.736694 31,975 217 444 0
2019-10-17 23:49:09 GMT 59.002304 20.745209 31,975 217 444 0
2019-10-17 23:49:02 GMT 59.013618 20.761698 31,975 217 444 0
2019-10-17 23:48:59 GMT 59.018833 20.769369 31,975 217 444 0
2019-10-17 23:48:51 GMT 59.030613 20.786606 31,975 217 444 0
2019-10-17 23:48:47 GMT 59.038651 20.798309 31,975 217 444 0
2019-10-17 23:48:41 GMT 59.047276 20.810947 31,975 217 444 0
2019-10-17 23:48:38 GMT 59.052212 20.818146 31,975 218 443 0
2019-10-17 23:48:29 GMT 59.068726 20.842255 31,975 218 443 0
2019-10-17 23:48:18 GMT 59.085663 20.867157 31,975 218 443 0
2019-10-17 23:48:08 GMT 59.101509 20.890408 32,000 218 443 0
2019-10-17 23:47:57 GMT 59.118988 20.916046 32,000 218 443 0
2019-10-17 23:47:48 GMT 59.135330 20.940033 31,975 218 444 0
2019-10-17 23:47:37 GMT 59.151833 20.964281 31,975 218 444 0
2019-10-17 23:47:27 GMT 59.168823 20.989285 32,000 218 444 0
2019-10-17 23:47:21 GMT 59.185043 21.013000 32,000 218 444 0
2019-10-17 23:47:17 GMT 59.185043 21.013000 32,000 218 444 0
2019-10-17 23:47:11 GMT 59.194244 21.026550 31,975 218 444 0
2019-10-17 23:47:06 GMT 59.202904 21.039291 32,000 217 445 0
2019-10-17 23:46:56 GMT 59.220638 21.065432 31,975 218 446 0
2019-10-17 23:46:47 GMT 59.235901 21.087891 31,975 218 446 0
2019-10-17 23:46:44 GMT 59.238327 21.091476 31,975 218 446 0
2019-10-17 23:46:37 GMT 59.251129 21.110325 31,975 218 446 0
2019-10-17 23:46:34 GMT 59.255264 21.116364 31,975 218 446 0
2019-10-17 23:46:30 GMT 59.261650 21.125856 32,000 218 446 0
2019-10-17 23:46:26 GMT 59.269192 21.137032 32,000 218 446 0
2019-10-17 23:46:23 GMT 59.272614 21.142090 32,000 218 446 0
2019-10-17 23:46:16 GMT 59.286346 21.162598 32,000 218 446 0
2019-10-17 23:46:13 GMT 59.290283 21.168549 32,000 218 446 0
2019-10-17 23:46:10 GMT 59.302597 21.187317 32,000 219 445 0
2019-10-17 23:46:05 GMT 59.307449 21.194733 32,000 219 445 0
2019-10-17 23:45:59 GMT 59.311935 21.201782 32,000 220 445 0
2019-10-17 23:45:55 GMT 59.319305 21.213409 32,000 220 444 -64
2019-10-17 23:45:49 GMT 59.327988 21.227480 32,000 221 444 0
2019-10-17 23:45:44 GMT 59.336693 21.242065 32,000 222 445 0
2019-10-17 23:45:39 GMT 59.343678 21.254473 32,025 224 443 0
2019-10-17 23:45:34 GMT 59.351868 21.270100 32,000 227 442 0
2019-10-17 23:45:30 GMT 59.356617 21.279949 32,000 228 443 0
2019-10-17 23:45:27 GMT 59.362110 21.291883 32,025 230 442 0
2019-10-17 23:45:23 GMT 59.366066 21.300976 32,000 231 442 0
2019-10-17 23:45:20 GMT 59.370575 21.311829 32,000 232 442 0
2019-10-17 23:45:17 GMT 59.374725 21.322189 32,000 234 442 0
2019-10-17 23:45:13 GMT 59.379520 21.335070 32,000 235 441 0
2019-10-17 23:45:08 GMT 59.386093 21.353851 32,000 237 441 0
2019-10-17 23:45:05 GMT 59.388290 21.360626 32,000 239 441 0
2019-10-17 23:45:02 GMT 59.391392 21.370398 32,000 240 440 0
2019-10-17 23:44:57 GMT 59.396561 21.387634 32,000 240 441 0
2019-10-17 23:44:54 GMT 59.399918 21.398987 32,000 240 441 0
2019-10-17 23:44:51 GMT 59.402054 21.406292 32,000 240 441 0
2019-10-17 23:44:48 GMT 59.405499 21.417940 32,000 240 441 0
2019-10-17 23:44:44 GMT 59.410385 21.434517 32,000 240 441 0
2019-10-17 23:44:41 GMT 59.412434 21.441429 32,000 240 441 0
2019-10-17 23:44:37 GMT 59.416443 21.454926 32,000 241 441 0
2019-10-17 23:44:32 GMT 59.422531 21.475616 32,000 240 441 0
2019-10-17 23:44:27 GMT 59.427517 21.492573 32,000 240 441 0
2019-10-17 23:44:23 GMT 59.433517 21.512970 32,000 241 440 0
2019-10-17 23:44:17 GMT 59.437477 21.526480 32,000 241 441 0
2019-10-17 23:44:14 GMT 59.440365 21.536234 32,000 241 441 64
2019-10-17 23:44:11 GMT 59.443909 21.548309 32,000 241 441 0
2019-10-17 23:44:03 GMT 59.451599 21.574677 32,000 241 441 64
2019-10-17 23:43:59 GMT 59.454849 21.585754 31,975 241 442 64
2019-10-17 23:43:56 GMT 59.458328 21.597565 31,975 241 442 0
2019-10-17 23:43:53 GMT 59.462059 21.610485 31,975 241 442 0
2019-10-17 23:43:50 GMT 59.464828 21.619812 31,975 241 443 0
2019-10-17 23:43:45 GMT 59.468903 21.633728 31,975 241 443 0
2019-10-17 23:43:42 GMT 59.476490 21.659830 31,975 241 443 0
2019-10-17 23:43:36 GMT 59.479248 21.669250 31,975 241 443 0
2019-10-17 23:43:32 GMT 59.483322 21.683167 31,975 241 443 0
2019-10-17 23:43:29 GMT 59.486080 21.692600 31,950 241 443 0
2019-10-17 23:43:25 GMT 59.490051 21.706238 31,975 241 443 0
2019-10-17 23:43:22 GMT 59.500092 21.740711 31,975 241 442 0
2019-10-17 23:43:15 GMT 59.500092 21.740711 31,975 241 442 0
2019-10-17 23:43:11 GMT 59.503906 21.753971 31,975 241 442 0
2019-10-17 23:43:02 GMT 59.513035 21.785320 31,975 241 442 0
2019-10-17 23:42:59 GMT 59.516476 21.797159 31,975 241 442 0
2019-10-17 23:42:54 GMT 59.522343 21.817331 31,975 241 440 0
2019-10-17 23:42:51 GMT 59.524948 21.826424 31,975 241 441 0
2019-10-17 23:42:48 GMT 59.526951 21.833338 31,975 241 441 0
2019-10-17 23:42:45 GMT 59.530396 21.845177 31,975 241 441 0
2019-10-17 23:42:42 GMT 59.533192 21.854933 31,975 241 440 0
2019-10-17 23:42:39 GMT 59.536449 21.866013 31,975 241 440 0
2019-10-17 23:42:32 GMT 59.543564 21.890717 31,975 241 440 0
2019-10-17 23:42:28 GMT 59.547821 21.905365 31,975 241 440 0
2019-10-17 23:42:24 GMT 59.552322 21.920944 32,000 241 440 0
2019-10-17 23:42:20 GMT 59.555534 21.932119 32,000 241 440 0
2019-10-17 23:42:17 GMT 59.558144 21.941118 32,000 241 440 0
2019-10-17 23:42:11 GMT 59.565445 21.966522 32,000 241 440 0
2019-10-17 23:42:08 GMT 59.568150 21.975876 32,000 241 440 0
2019-10-17 23:42:01 GMT 59.575600 22.001637 32,000 241 440 0
2019-10-17 23:41:58 GMT 59.578903 22.013214 32,000 241 440 0
2019-10-17 23:41:50 GMT 59.586502 22.039673 32,000 241 441 0
2019-10-17 23:41:46 GMT 59.589890 22.051483 32,000 241 441 0
2019-10-17 23:41:42 GMT 59.593384 22.063766 32,000 241 441 0
2019-10-17 23:41:39 GMT 59.600098 22.087097 32,000 241 441 0
2019-10-17 23:41:36 GMT 59.600098 22.087097 32,000 241 441 0
2019-10-17 23:41:29 GMT 59.606834 22.110554 32,000 241 441 64
2019-10-17 23:41:26 GMT 59.610718 22.124176 32,000 241 441 0
2019-10-17 23:41:23 GMT 59.612320 22.129761 32,000 241 441 0
2019-10-17 23:41:19 GMT 59.616844 22.145500 32,000 241 441 0
2019-10-17 23:41:16 GMT 59.622616 22.165865 32,000 241 441 0
2019-10-17 23:41:13 GMT 59.622616 22.165865 32,000 241 441 0
2019-10-17 23:41:09 GMT 59.627457 22.182629 32,000 241 441 0
2019-10-17 23:41:06 GMT 59.628857 22.187553 32,000 241 441 0
2019-10-17 23:41:01 GMT 59.635281 22.209999 32,000 241 442 0
2019-10-17 23:40:57 GMT 59.639145 22.223694 32,000 241 442 0
2019-10-17 23:40:53 GMT 59.643051 22.237465 31,975 241 443 0
2019-10-17 23:40:49 GMT 59.646263 22.248735 31,975 241 443 0
2019-10-17 23:40:46 GMT 59.649170 22.258850 31,975 241 443 0
2019-10-17 23:40:42 GMT 59.653107 22.272602 31,975 241 442 0
2019-10-17 23:40:39 GMT 59.656925 22.285955 32,000 241 443 0
2019-10-17 23:40:36 GMT 59.660019 22.296936 31,975 241 444 0
2019-10-17 23:40:30 GMT 59.665833 22.317352 31,975 241 443 0
2019-10-17 23:40:26 GMT 59.669815 22.331451 32,000 241 443 0
2019-10-17 23:40:22 GMT 59.675034 22.349762 31,975 241 443 0
2019-10-17 23:40:18 GMT 59.677414 22.358276 32,000 241 443 0
2019-10-17 23:40:15 GMT 59.681808 22.373749 32,000 241 443 0
2019-10-17 23:40:12 GMT 59.683693 22.380476 32,000 241 443 0
2019-10-17 23:40:08 GMT 59.687511 22.393925 32,000 241 443 0
2019-10-17 23:40:05 GMT 59.690598 22.404877 32,000 241 444 0
2019-10-17 23:40:02 GMT 59.693890 22.416561 32,000 241 444 0
2019-10-17 23:39:58 GMT 59.697891 22.430672 32,000 241 444 0
2019-10-17 23:39:55 GMT 59.700497 22.439859 32,000 241 444 0
2019-10-17 23:39:50 GMT 59.705479 22.457569 32,000 241 444 0
2019-10-17 23:39:47 GMT 59.709251 22.471020 32,000 241 444 0
2019-10-17 23:39:44 GMT 59.711250 22.478123 32,000 241 444 0
2019-10-17 23:39:41 GMT 59.714127 22.488373 32,000 241 444 64
2019-10-17 23:39:38 GMT 59.717514 22.500458 32,000 241 444 64
2019-10-17 23:39:35 GMT 59.721771 22.515627 31,975 242 443 128
2019-10-17 23:39:31 GMT 59.724838 22.526642 31,950 242 443 256
2019-10-17 23:39:27 GMT 59.727730 22.536842 31,975 242 443 192
2019-10-17 23:39:24 GMT 59.731503 22.550291 31,950 241 442 256
2019-10-17 23:39:18 GMT 59.738205 22.574347 31,925 242 442 512
2019-10-17 23:39:15 GMT 59.740677 22.583221 31,900 242 442 512
2019-10-17 23:39:11 GMT 59.744431 22.596588 31,850 241 441 704
2019-10-17 23:39:06 GMT 59.749657 22.615356 31,800 241 441 1088
2019-10-17 23:39:03 GMT 59.752033 22.623787 31,775 241 441 1344
2019-10-17 23:39:00 GMT 59.755096 22.634674 31,650 241 441 1472
2019-10-17 23:38:56 GMT 59.762009 22.659485 31,500 242 442 1088
2019-10-17 23:38:50 GMT 59.770294 22.689148 31,300 242 443 1664
2019-10-17 23:38:46 GMT 59.772373 22.696617 31,225 242 442 960
2019-10-17 23:38:40 GMT 59.775124 22.706371 31,200 242 443 1664
2019-10-17 23:38:36 GMT 59.778992 22.720184 31,175 241 441 960
2019-10-17 23:38:33 GMT 59.782104 22.731537 31,150 242 440 960
2019-10-17 23:38:26 GMT 59.788715 22.755148 30,975 242 439 1216
2019-10-17 23:38:23 GMT 59.791580 22.765320 30,950 242 439 1216
2019-10-17 23:38:19 GMT 59.795418 22.779110 30,875 242 439 1536
2019-10-17 23:38:13 GMT 59.802074 22.803070 30,650 242 443 1600
2019-10-17 23:38:06 GMT 59.809296 22.828857 30,425 241 442 1664
2019-10-17 23:38:03 GMT 59.811859 22.838104 30,375 242 443 1664
2019-10-17 23:37:59 GMT 59.815613 22.851562 30,275 242 444 1408
2019-10-17 23:37:55 GMT 59.822838 22.877607 30,150 242 444 1408
2019-10-17 23:37:48 GMT 59.825817 22.888214 30,025 242 444 1408
2019-10-17 23:37:45 GMT 59.830193 22.903936 29,925 242 444 1344
2019-10-17 23:37:41 GMT 59.833172 22.914639 29,850 242 444 1280
2019-10-17 23:37:34 GMT 59.840481 22.940968 29,675 242 443 1344
2019-10-17 23:37:31 GMT 59.843124 22.950623 29,625 242 443 1408
2019-10-17 23:37:27 GMT 59.847107 22.964905 29,575 242 443 1408
2019-10-17 23:37:22 GMT 59.852722 22.985197 29,400 242 444 1664
2019-10-17 23:37:18 GMT 59.855392 22.994843 29,300 242 444 1664
2019-10-17 23:37:14 GMT 59.860218 23.012381 29,175 242 444 1664
2019-10-17 23:37:11 GMT 59.863152 23.023176 29,075 242 445 1536
2019-10-17 23:37:02 GMT 59.872330 23.056458 28,850 242 445 1536
2019-10-17 23:36:58 GMT 59.875259 23.067169 28,775 242 445 1536
2019-10-17 23:36:53 GMT 59.880840 23.087673 28,625 242 445 1344
2019-10-17 23:36:46 GMT 59.887024 23.110199 28,525 242 444 1216
2019-10-17 23:36:43 GMT 59.893456 23.133797 28,350 242 443 1088
2019-10-17 23:36:37 GMT 59.895630 23.141785 28,325 242 442 1024
2019-10-17 23:36:31 GMT 59.903458 23.170349 28,175 242 442 1088
2019-10-17 23:36:20 GMT 59.913162 23.206055 28,025 242 441 1472
2019-10-17 23:36:12 GMT 59.920971 23.234854 27,750 242 441 1536
2019-10-17 23:36:09 GMT 59.928223 23.261536 27,575 242 440 1216
2019-10-17 23:36:00 GMT 59.932560 23.277472 27,475 242 438 1216
2019-10-17 23:35:57 GMT 59.934998 23.286346 27,425 242 438 1344
2019-10-17 23:35:52 GMT 59.940475 23.306547 27,175 242 437 1536
2019-10-17 23:35:49 GMT 59.942917 23.315369 27,300 242 438 1344
2019-10-17 23:35:46 GMT 59.944839 23.322418 27,200 242 437 1472
2019-10-17 23:35:41 GMT 59.950607 23.343658 27,025 242 436 1728
2019-10-17 23:35:38 GMT 59.955368 23.361290 26,900 242 436 1728
2019-10-17 23:35:31 GMT 59.960678 23.380672 26,675 242 436 1728
2019-10-17 23:35:28 GMT 59.962959 23.389206 26,550 242 436 1536
2019-10-17 23:35:20 GMT 59.970337 23.416410 26,400 242 436 1344
2019-10-17 23:35:16 GMT 59.974274 23.430895 26,400 242 436 1344
2019-10-17 23:35:13 GMT 59.977982 23.444635 25,875 242 426 1216
2019-10-17 23:35:09 GMT 59.980270 23.453064 26,250 242 434 1088
2019-10-17 23:35:05 GMT 59.984325 23.468170 26,150 242 433 1088
2019-10-17 23:35:02 GMT 59.987167 23.478666 26,075 242 432 896
2019-10-17 23:34:59 GMT 59.990005 23.489162 26,050 242 431 960
2019-10-17 23:34:55 GMT 59.994049 23.504208 25,975 242 429 896
2019-10-17 23:34:52 GMT 59.996658 23.513962 25,925 242 427 1024
2019-10-17 23:34:49 GMT 59.999924 23.526142 25,875 242 426 1088
2019-10-17 23:34:46 GMT 60.003273 23.538698 25,800 242 425 1344
2019-10-17 23:34:39 GMT 60.009109 23.560560 25,650 242 424 1664
2019-10-17 23:34:36 GMT 60.012119 23.571657 25,600 242 424 1728
2019-10-17 23:34:31 GMT 60.015884 23.585848 25,375 242 424 1856
2019-10-17 23:34:27 GMT 60.020592 23.603439 25,275 242 424 1792
2019-10-17 23:34:24 GMT 60.022408 23.610306 25,200 242 424 1728
2019-10-17 23:34:20 GMT 60.026318 23.624725 25,050 242 423 1536
2019-10-17 23:34:17 GMT 60.029808 23.637772 24,975 242 422 1536
2019-10-17 23:34:14 GMT 60.032185 23.646698 24,925 242 422 1536
2019-10-17 23:34:10 GMT 60.035488 23.659058 24,825 242 421 1600
2019-10-17 23:34:07 GMT 60.039276 23.673075 24,675 242 421 1664
2019-10-17 23:34:03 GMT 60.041725 23.682304 24,650 242 421 1664
2019-10-17 23:34:00 GMT 60.044846 23.693880 24,550 242 419 1664
2019-10-17 23:33:56 GMT 60.049034 23.709576 24,425 242 419 1664
2019-10-17 23:33:50 GMT 60.053783 23.727329 24,275 242 418 1664
2019-10-17 23:33:47 GMT 60.057861 23.742592 24,150 243 417 1600
2019-10-17 23:33:43 GMT 60.059875 23.750168 24,075 242 416 1600
2019-10-17 23:33:38 GMT 60.065559 23.771471 23,900 242 416 1664
2019-10-17 23:33:34 GMT 60.068634 23.783047 23,850 243 415 1728
2019-10-17 23:33:31 GMT 60.072220 23.796583 23,675 242 414 1856
2019-10-17 23:33:28 GMT 60.074734 23.806000 23,600 242 414 1920
2019-10-17 23:33:25 GMT 60.076546 23.812769 23,525 242 414 1984
2019-10-17 23:33:19 GMT 60.082214 23.833986 23,325 242 413 1984
2019-10-17 23:33:16 GMT 60.085903 23.847788 23,175 242 413 1920
2019-10-17 23:33:12 GMT 60.087673 23.854555 23,125 242 413 1920
2019-10-17 23:33:06 GMT 60.095123 23.882479 22,875 242 412 1984
2019-10-17 23:33:03 GMT 60.096474 23.887514 22,800 242 412 1984
2019-10-17 23:32:59 GMT 60.099609 23.899336 22,675 242 412 1856
2019-10-17 23:32:55 GMT 60.103729 23.914774 22,550 243 411 1856
2019-10-17 23:32:52 GMT 60.105515 23.921497 22,475 243 411 1792
2019-10-17 23:32:49 GMT 60.109772 23.937504 22,325 242 410 1728
2019-10-17 23:32:46 GMT 60.111462 23.943819 22,250 242 409 1728
2019-10-17 23:32:43 GMT 60.115231 23.957848 22,150 242 408 1792
2019-10-17 23:32:38 GMT 60.118584 23.970501 22,075 242 408 1792
2019-10-17 23:32:35 GMT 60.123753 23.989725 21,875 242 406 1856
2019-10-17 23:32:28 GMT 60.128128 24.006304 21,625 242 404 1984
2019-10-17 23:32:25 GMT 60.130268 24.014250 21,625 242 404 1984
2019-10-17 23:32:22 GMT 60.132549 24.022783 21,525 242 404 1984
2019-10-17 23:32:18 GMT 60.136551 24.037613 21,375 242 404 1920
2019-10-17 23:32:15 GMT 60.139114 24.047110 21,225 242 402 1920
2019-10-17 23:32:12 GMT 60.141495 24.055986 21,225 242 402 1920
2019-10-17 23:32:07 GMT 60.146255 24.073603 21,050 242 401 2048
2019-10-17 23:32:04 GMT 60.149826 24.086672 20,900 242 401 2048
2019-10-17 23:32:01 GMT 60.150742 24.089891 20,875 242 401 2112
2019-10-17 23:31:55 GMT 60.156898 24.112244 20,675 241 399 1984
2019-10-17 23:31:52 GMT 60.160080 24.123514 20,500 241 399 1984
2019-10-17 23:31:47 GMT 60.164532 24.139219 20,350 241 397 2048
2019-10-17 23:31:44 GMT 60.166489 24.145960 20,250 240 397 1984
2019-10-17 23:31:41 GMT 60.169235 24.155432 20,175 240 397 2048
2019-10-17 23:31:37 GMT 60.176880 24.180435 19,975 238 396 1856
2019-10-17 23:31:34 GMT 60.176880 24.180435 19,900 238 395 1920
2019-10-17 23:31:31 GMT 60.178802 24.186686 19,850 238 394 1920
2019-10-17 23:31:27 GMT 60.184036 24.202881 19,675 238 393 2048
2019-10-17 23:31:23 GMT 60.188179 24.215731 19,550 238 391 2112
2019-10-17 23:31:20 GMT 60.189156 24.218773 19,500 238 391 2112
2019-10-17 23:31:17 GMT 60.195969 24.239819 19,250 238 390 2176
2019-10-17 23:31:14 GMT 60.195969 24.239819 19,250 238 390 2176
2019-10-17 23:31:10 GMT 60.199265 24.250141 19,125 238 390 2240
2019-10-17 23:31:06 GMT 60.204941 24.267757 18,925 238 389 2112
2019-10-17 23:31:02 GMT 60.207733 24.276548 18,750 238 387 2304
2019-10-17 23:30:56 GMT 60.213455 24.294275 18,625 238 386 2432
2019-10-17 23:30:53 GMT 60.215973 24.302137 18,475 238 386 2624
2019-10-17 23:30:50 GMT 60.218952 24.311468 18,275 238 386 2624
2019-10-17 23:30:46 GMT 60.222443 24.322357 18,175 238 386 2752
2019-10-17 23:30:43 GMT 60.227238 24.337364 17,925 238 386 2560
2019-10-17 23:30:40 GMT 60.228588 24.341583 17,925 238 386 2560
2019-10-17 23:30:36 GMT 60.233616 24.357279 17,675 238 385 2368
2019-10-17 23:30:33 GMT 60.235523 24.363262 17,600 238 385 2368
2019-10-17 23:30:30 GMT 60.238312 24.372032 17,500 238 385 2368
2019-10-17 23:30:25 GMT 60.243668 24.388796 17,350 238 384 2368
2019-10-17 23:30:22 GMT 60.245956 24.395994 17,175 238 382 2304
2019-10-17 23:30:19 GMT 60.248795 24.404991 17,050 238 382 2304
2019-10-17 23:30:16 GMT 60.251678 24.413895 16,900 238 380 2240
2019-10-17 23:30:13 GMT 60.255844 24.427059 16,850 238 380 2176
2019-10-17 23:30:10 GMT 60.257721 24.433025 16,775 238 380 2240
2019-10-17 23:30:06 GMT 60.261406 24.444580 16,550 238 378 2368
2019-10-17 23:30:02 GMT 60.264572 24.454683 16,425 238 378 2560
2019-10-17 23:29:59 GMT 60.267410 24.463512 16,275 238 377 2688
2019-10-17 23:29:55 GMT 60.272919 24.480949 16,125 238 377 2688
2019-10-17 23:29:52 GMT 60.274906 24.487152 15,875 238 376 2752
2019-10-17 23:29:49 GMT 60.276855 24.493357 15,825 238 376 2752
2019-10-17 23:29:46 GMT 60.280609 24.505100 15,650 238 375 2624
2019-10-17 23:29:42 GMT 60.283844 24.515404 15,500 238 375 2560
2019-10-17 23:29:39 GMT 60.286449 24.523642 15,450 238 375 2496
2019-10-17 23:29:35 GMT 60.289989 24.534824 15,275 238 374 2368
2019-10-17 23:29:32 GMT 60.293427 24.545635 15,050 238 370 2304
2019-10-17 23:29:29 GMT 60.295807 24.553211 15,000 238 370 2304
2019-10-17 23:29:26 GMT 60.298462 24.561703 14,825 238 370 2368
2019-10-17 23:29:23 GMT 60.301395 24.571020 14,750 238 369 2432
2019-10-17 23:29:19 GMT 60.312473 24.606236 13,125 238 361 2944
2019-10-17 23:29:11 GMT 60.312473 24.606236 14,150 238 366 2688
2019-10-17 23:29:02 GMT 60.320061 24.630367 13,875 238 364 2624
2019-10-17 23:28:59 GMT 60.323593 24.641577 13,675 238 363 2688
2019-10-17 23:28:53 GMT 60.328400 24.656919 13,375 238 362 2816
2019-10-17 23:28:50 GMT 60.331100 24.665443 13,275 238 361 2880
2019-10-17 23:28:46 GMT 60.334213 24.675390 13,175 238 361 2944
2019-10-17 23:28:43 GMT 60.338058 24.687605 12,900 238 360 3008
2019-10-17 23:28:40 GMT 60.339844 24.693289 12,775 238 360 3008
2019-10-17 23:28:37 GMT 60.342594 24.701975 12,650 238 359 2944
2019-10-17 23:28:32 GMT 60.347061 24.716099 12,400 238 358 2880
2019-10-17 23:28:27 GMT 60.351379 24.729940 12,175 238 357 2752
2019-10-17 23:28:22 GMT 60.356232 24.745331 11,925 238 355 2560
2019-10-17 23:28:17 GMT 60.360283 24.758083 11,725 238 353 2304
2019-10-17 23:28:11 GMT 60.365112 24.773317 11,400 238 347 1792
2019-10-17 23:28:07 GMT 60.369095 24.785913 11,375 238 347 1728
2019-10-17 23:28:03 GMT 60.376205 24.808306 11,225 238 340 1152
2019-10-17 23:28:00 GMT 60.376205 24.808306 11,175 238 338 1088
2019-10-17 23:27:57 GMT 60.377838 24.813286 11,150 238 335 960
2019-10-17 23:27:52 GMT 60.382141 24.826830 11,075 238 328 896
2019-10-17 23:27:49 GMT 60.384476 24.833933 11,025 237 323 832
2019-10-17 23:27:46 GMT 60.386078 24.839046 10,700 237 316 832
2019-10-17 23:27:43 GMT 60.389008 24.848043 10,900 237 312 896
2019-10-17 23:27:40 GMT 60.394684 24.865564 10,850 237 308 896
2019-10-17 23:27:36 GMT 60.394684 24.865564 10,825 237 306 896
2019-10-17 23:27:29 GMT 60.400925 24.884523 10,675 237 294 1216
2019-10-17 23:27:25 GMT 60.402740 24.890017 10,625 237 292 1280
2019-10-17 23:27:20 GMT 60.407207 24.903456 10,475 236 285 1920
2019-10-17 23:27:16 GMT 60.410065 24.911974 10,325 236 281 2496
2019-10-17 23:27:13 GMT 60.412331 24.918758 10,200 236 278 3072
2019-10-17 23:27:10 GMT 60.414192 24.924349 10,075 236 279 3008
2019-10-17 23:27:06 GMT 60.417496 24.934256 6,850 240 273 2880
2019-10-17 23:27:03 GMT 60.418579 24.937544 6,850 240 273 2880
2019-10-17 23:26:58 GMT 60.423157 24.951277 9,425 237 276 3072
2019-10-17 23:26:53 GMT 60.425877 24.959661 9,200 237 276 3072
2019-10-17 23:26:49 GMT 60.428696 24.968609 9,000 238 275 2944
2019-10-17 23:26:46 GMT 60.431370 24.977024 8,875 238 275 2880
2019-10-17 23:26:42 GMT 60.433319 24.983383 8,675 239 274 2944
2019-10-17 23:26:38 GMT 60.438629 25.002037 8,400 241 271 3136
2019-10-17 23:26:32 GMT 60.439865 25.006777 8,100 243 270 3904
2019-10-17 23:26:28 GMT 60.442726 25.018320 7,775 245 271 3584
2019-10-17 23:26:24 GMT 60.444775 25.027639 7,550 247 272 3392
2019-10-17 23:26:20 GMT 60.446636 25.037645 7,300 254 273 3136
2019-10-17 23:26:17 GMT 60.447281 25.042294 7,175 261 273 2752
2019-10-17 23:26:14 GMT 60.447895 25.049025 7,075 265 272 2752
2019-10-17 23:26:10 GMT 60.448105 25.061424 6,825 277 270 3200
2019-10-17 23:26:07 GMT 60.447693 25.069380 6,675 281 270 3200
2019-10-17 23:26:04 GMT 60.447197 25.074627 6,550 285 269 3328
2019-10-17 23:25:59 GMT 60.445221 25.086807 6,375 293 270 3392
2019-10-17 23:25:56 GMT 60.443298 25.094383 6,075 303 271 3200
2019-10-17 23:25:53 GMT 60.441891 25.098854 5,950 307 271 3136
2019-10-17 23:25:50 GMT 60.436432 25.111052 5,725 318 272 3008
2019-10-17 23:25:47 GMT 60.436432 25.111052 5,625 320 272 3008
2019-10-17 23:25:43 GMT 60.431461 25.118376 5,375 330 271 2816
2019-10-17 23:25:40 GMT 60.429428 25.120712 5,200 349 269 2624
2019-10-17 23:25:34 GMT 60.420731 25.126869 5,000 347 270 2624
2019-10-17 23:25:29 GMT 60.416336 25.128195 4,800 358 268 2112
2019-10-17 23:25:26 GMT 60.411896 25.128099 4,625 5 266 2432
2019-10-17 23:25:23 GMT 60.409302 25.127596 4,575 9 265 2112
2019-10-17 23:25:19 GMT 60.404434 25.125637 4,150 21 259 1920
2019-10-17 23:25:15 GMT 60.399761 25.122496 4,075 29 256 1280
2019-10-17 23:25:12 GMT 60.396500 25.119455 4,075 29 256 1280
2019-10-17 23:25:09 GMT 60.393402 25.115692 4,150 35 252 1088
2019-10-17 23:25:05 GMT 60.389786 25.109917 4,075 43 245 1152
2019-10-17 23:24:58 GMT 60.381958 25.093246 3,925 47 227 512
2019-10-17 23:24:55 GMT 60.380348 25.089733 3,925 47 225 576
2019-10-17 23:24:52 GMT 60.380348 25.089733 3,900 47 218 640
2019-10-17 23:24:48 GMT 60.377426 25.083208 3,850 47 211 768
2019-10-17 23:24:42 GMT 60.373829 25.075314 3,775 46 205 1216
2019-10-17 23:24:38 GMT 60.370617 25.068447 3,625 46 195 1536
2019-10-17 23:24:35 GMT 60.368755 25.064524 3,575 46 194 1600
2019-10-17 23:24:32 GMT 60.367493 25.061708 3,500 46 191 2368
2019-10-17 23:24:25 GMT 60.362144 25.050102 3,050 47 190 2560
2019-10-17 23:24:21 GMT 60.361038 25.047598 3,025 47 190 2496
2019-10-17 23:24:15 GMT 60.355164 25.034309 2,600 49 187 2304
2019-10-17 23:24:09 GMT 60.353394 25.030266 2,475 49 186 2240
2019-10-17 23:24:05 GMT 60.351437 25.025679 2,350 48 185 2240
2019-10-17 23:24:01 GMT 60.349529 25.021263 2,200 48 184 2432
2019-10-17 23:23:56 GMT 60.346176 25.013613 1,975 48 182 2112
2019-10-17 23:23:52 GMT 60.343872 25.008387 1,825 48 179 2112
2019-10-17 23:23:48 GMT 60.342220 25.004490 1,700 48 177 2432
2019-10-17 23:23:44 GMT 60.339432 24.998158 1,475 47 176 2368
2019-10-17 23:23:40 GMT 60.337704 24.994486 1,350 47 174 2432
2019-10-17 23:23:34 GMT 60.333794 24.985950 1,075 47 170 2112
2019-10-17 23:23:30 GMT 60.332726 24.983597 900 46 172 1920
2019-10-17 23:23:22 GMT 60.328125 24.973629 550 48 168 2240
2019-10-17 23:23:12 GMT 60.322632 24.961292 0 47 170
2019-10-17 23:23:01 GMT 60.317677 24.950377 0 47 130
2019-10-17 23:22:51 GMT 60.314449 24.943274 0 47 84
2019-10-17 23:22:40 GMT 60.312580 24.939112 0 47 37
2019-10-17 23:22:30 GMT 60.311897 24.937662 0 45 15
2019-10-17 23:22:09 GMT 60.310726 24.937641 0 320 15
2019-10-17 23:21:59 GMT 60.310356 24.938646 0 289 14
2019-10-17 23:21:50 GMT 60.310375 24.939817 0 239 14
2019-10-17 23:21:39 GMT 60.310753 24.940756 0 227 18
2019-10-17 23:21:25 GMT 60.311634 24.942705 0 227 23
2019-10-17 23:21:18 GMT 60.312103 24.943747 0 227 23
2019-10-17 23:21:06 GMT 60.313019 24.945713 0 227 28
2019-10-17 23:20:58 GMT 60.313683 24.947205 0 227 26
2019-10-17 23:20:48 GMT 60.314465 24.948946 0 227 27
2019-10-17 23:20:37 GMT 60.315239 24.950615 0 227 25
2019-10-17 23:20:27 GMT 60.315983 24.952295 0 227 25
2019-10-17 23:20:18 GMT 60.316715 24.953882 0 227 23
2019-10-17 23:20:07 GMT 60.317398 24.955372 0 227 22
2019-10-17 23:19:57 GMT 60.318050 24.956818 0 227 23
2019-10-17 23:19:46 GMT 60.318726 24.958288 0 227 22
2019-10-17 23:19:35 GMT 60.319401 24.959761 0 227 20
2019-10-17 23:19:25 GMT 60.320045 24.961245 0 227 21
2019-10-17 23:19:14 GMT 60.320713 24.962679 0 227 21
2019-10-17 23:19:02 GMT 60.321396 24.964300 0 227 20
2019-10-17 23:18:43 GMT 60.322472 24.966524 0 227 16
2019-10-17 23:18:32 GMT 60.322857 24.967485 0 227 10
2019-10-17 23:18:21 GMT 60.323067 24.968098 0 267 10
2019-10-17 23:18:06 GMT 60.322678 24.968868 0 331 13
2019-10-17 23:18:02 GMT 60.322449 24.969154 0 331 19
We lost coverage of the aircraft here for a total of 10 minutes
2019-10-17 23:07:39 GMT 60.310726 24.989605 0 334 2
2019-10-17 23:07:16 GMT 60.311005 24.989777 0 11 4
2019-10-17 23:07:10 GMT 60.311077 24.989849 0 14 4
2019-10-17 23:06:50 GMT 60.311207 24.990244 0 50 4
2019-10-17 23:06:24 GMT 60.311287 24.990732 0 64 0
We lost coverage of the aircraft here for a total of 148 minutes
2019-10-17 20:38:43 GMT 60.327648 24.944164 0 47 15 0
2019-10-17 20:38:38 GMT 60.327393 24.943583 0 47 14 0
2019-10-17 20:38:27 GMT 60.326969 24.942659 0 45 14 0
2019-10-17 20:38:17 GMT 60.326546 24.941711 0 47 14 0
2019-10-17 20:38:06 GMT 60.326122 24.940788 0 45 13 0
2019-10-17 20:37:56 GMT 60.325729 24.939945 0 47 13 0
2019-10-17 20:37:45 GMT 60.325390 24.939108 0 59 12 0
2019-10-17 20:37:35 GMT 60.325207 24.937910 0 78 20 0
2019-10-17 20:37:24 GMT 60.325024 24.936171 0 75 18 0
2019-10-17 20:37:14 GMT 60.324852 24.934608 0 75 17 0
2019-10-17 20:37:03 GMT 60.324703 24.933258 0 78 15 0
2019-10-17 20:36:53 GMT 60.324566 24.931980 0 78 14 0
2019-10-17 20:36:42 GMT 60.324383 24.930536 0 70 21 0
2019-10-17 20:36:32 GMT 60.323997 24.928616 0 61 27 0
2019-10-17 20:36:22 GMT 60.323311 24.926655 0 47 33 0
2019-10-17 20:36:10 GMT 60.321156 24.921871 0 47 88 0
2019-10-17 20:35:48 GMT 60.313217 24.904436 200 47 135 -576
2019-10-17 20:35:41 GMT 60.310226 24.897861 300 47 134 -832
2019-10-17 20:35:31 GMT 60.306049 24.888840 425 47 132 -576
2019-10-17 20:35:28 GMT 60.304562 24.885603 475 47 131 -512
2019-10-17 20:35:18 GMT 60.300602 24.876871 600 47 129 -640
2019-10-17 20:35:11 GMT 60.297729 24.870396 675 47 127 -640
2019-10-17 20:35:07 GMT 60.296555 24.867847 725 47 127 -704
2019-10-17 20:35:00 GMT 60.293655 24.861492 800 47 126 -640
2019-10-17 20:34:57 GMT 60.291779 24.857325 850 47 125 -640
2019-10-17 20:34:49 GMT 60.288502 24.850288 925 46 125 -640
2019-10-17 20:34:46 GMT 60.288174 24.849604 950 47 125 -640
2019-10-17 20:34:39 GMT 60.284218 24.840971 1,125 47 129 -768
2019-10-17 20:34:36 GMT 60.284218 24.840971 1,075 47 128 -704
2019-10-17 20:34:32 GMT 60.282589 24.837439 1,125 47 129 -704
2019-10-17 20:34:29 GMT 60.279877 24.831469 1,200 47 130 -640
2019-10-17 20:34:18 GMT 60.276810 24.824554 1,300 47 132 -704
2019-10-17 20:34:12 GMT 60.274429 24.819252 1,375 48 131 -640
2019-10-17 20:34:09 GMT 60.272964 24.816032 1,425 47 132 -704
2019-10-17 20:34:05 GMT 60.271416 24.812622 1,475 47 132 -640
2019-10-17 20:33:59 GMT 60.268616 24.806561 1,550 47 136 -640
2019-10-17 20:33:56 GMT 60.267105 24.803150 1,550 47 136 -640
2019-10-17 20:33:47 GMT 60.263641 24.795652 1,750 47 155 -768
2019-10-17 20:33:36 GMT 60.258591 24.784588 1,900 47 159 -832
2019-10-17 20:33:32 GMT 60.256393 24.779758 1,875 47 163 -768
2019-10-17 20:33:25 GMT 60.253006 24.772181 1,975 48 169 -896
2019-10-17 20:33:21 GMT 60.250980 24.767696 2,025 48 170 -960
2019-10-17 20:33:17 GMT 60.248417 24.761908 2,100 47 174 -1024
2019-10-17 20:33:14 GMT 60.247055 24.758923 2,125 48 174 -960
2019-10-17 20:33:10 GMT 60.245132 24.754564 2,225 47 176 -896
2019-10-17 20:33:05 GMT 60.241062 24.745724 2,325 47 179 -640
2019-10-17 20:33:01 GMT 60.240005 24.743389 2,350 47 180 -512
2019-10-17 20:32:56 GMT 60.236481 24.735622 2,375 46 183 0
2019-10-17 20:32:50 GMT 60.233894 24.730028 2,375 46 184 0
2019-10-17 20:32:47 GMT 60.231567 24.725025 2,375 46 186 0
2019-10-17 20:32:44 GMT 60.230404 24.722475 2,375 46 187 0
2019-10-17 20:32:39 GMT 60.227097 24.715450 2,375 45 192 128
2019-10-17 20:32:35 GMT 60.224491 24.709921 2,375 46 193 128
2019-10-17 20:32:26 GMT 60.216522 24.693289 2,350 46 198 0
2019-10-17 20:32:19 GMT 60.214874 24.689878 2,350 45 198 0
2019-10-17 20:32:15 GMT 60.211735 24.683336 2,350 46 198 0
2019-10-17 20:32:10 GMT 60.208923 24.677378 2,375 46 197 0
2019-10-17 20:32:04 GMT 60.205215 24.669327 2,375 46 197 0
2019-10-17 20:32:00 GMT 60.202606 24.663645 2,375 47 196 0
2019-10-17 20:31:55 GMT 60.199585 24.657047 2,350 48 196 0
2019-10-17 20:31:52 GMT 60.197678 24.652634 2,350 49 197 0
2019-10-17 20:31:49 GMT 60.196049 24.648710 2,350 50 197 -64
2019-10-17 20:31:44 GMT 60.192902 24.640820 2,375 53 197 0
2019-10-17 20:31:35 GMT 60.188278 24.628506 2,375 52 198 0
2019-10-17 20:31:32 GMT 60.186859 24.624718 2,375 52 199 0
2019-10-17 20:31:28 GMT 60.184315 24.618105 2,375 51 200 0
2019-10-17 20:31:23 GMT 60.181595 24.611269 2,375 51 204 0
2019-10-17 20:31:19 GMT 60.179150 24.605158 2,375 51 208 0
2019-10-17 20:31:13 GMT 60.175507 24.596210 2,375 51 214 -64
2019-10-17 20:31:09 GMT 60.172817 24.589462 2,375 51 219 -128
2019-10-17 20:31:03 GMT 60.168816 24.579556 2,400 50 225 -128
2019-10-17 20:30:58 GMT 60.165974 24.572786 2,400 50 230 -256
2019-10-17 20:30:52 GMT 60.161831 24.562780 2,450 50 236 -448
2019-10-17 20:30:48 GMT 60.154724 24.545542 2,600 49 248 -512
2019-10-17 20:30:42 GMT 60.154724 24.545542 2,525 49 248 -512
2019-10-17 20:30:38 GMT 60.151382 24.537491 2,625 49 248 -512
2019-10-17 20:30:32 GMT 60.146889 24.526781 2,650 50 249 -448
2019-10-17 20:30:25 GMT 60.141815 24.514618 2,675 50 252 -512
2019-10-17 20:30:22 GMT 60.139114 24.508045 2,725 50 256 -448
2019-10-17 20:30:17 GMT 60.135956 24.500553 2,800 49 260 -384
2019-10-17 20:30:12 GMT 60.131664 24.490585 2,825 49 262 -1024
2019-10-17 20:30:07 GMT 60.127899 24.481895 2,900 49 263 -1408
2019-10-17 20:30:02 GMT 60.123238 24.471066 3,050 49 262 -1408
2019-10-17 20:29:57 GMT 60.119934 24.463316 3,150 49 262 -1408
2019-10-17 20:29:51 GMT 60.115231 24.452230 3,300 50 261 -1536
2019-10-17 20:29:47 GMT 60.112301 24.445070 3,400 50 261 -1216
2019-10-17 20:29:43 GMT 60.108948 24.436831 3,500 51 263 -704
2019-10-17 20:29:40 GMT 60.107132 24.432220 3,500 51 263 -704
2019-10-17 20:29:37 GMT 60.104279 24.425165 3,575 51 266 -832
2019-10-17 20:29:30 GMT 60.099266 24.412701 3,675 51 268 -960
2019-10-17 20:29:26 GMT 60.096222 24.405182 3,750 51 268 -1216
2019-10-17 20:29:21 GMT 60.091370 24.393152 3,875 50 270 -1216
2019-10-17 20:29:16 GMT 60.087997 24.384842 3,975 51 270 -1216
2019-10-17 20:29:10 GMT 60.082443 24.370991 4,125 51 272 -1088
2019-10-17 20:29:06 GMT 60.080177 24.365322 4,175 51 272 -1088
2019-10-17 20:28:59 GMT 60.074917 24.351786 4,275 51 272 -1216
2019-10-17 20:28:55 GMT 60.072124 24.344624 4,375 52 273 -1280
2019-10-17 20:28:49 GMT 60.067154 24.331591 4,550 53 274 -1280
2019-10-17 20:28:46 GMT 60.064407 24.324299 4,600 53 273 -1344
2019-10-17 20:28:38 GMT 60.059044 24.309898 4,750 53 274 -1216
2019-10-17 20:28:35 GMT 60.056808 24.303720 4,825 53 274 -1216
2019-10-17 20:28:29 GMT 60.052094 24.290867 4,950 54 275 -1216
2019-10-17 20:28:25 GMT 60.048988 24.282434 5,050 53 276 -1088
2019-10-17 20:28:18 GMT 60.043404 24.267818 5,175 50 278 -1024
2019-10-17 20:28:15 GMT 60.041199 24.262453 5,225 50 278 -1024
2019-10-17 20:28:09 GMT 60.036186 24.249672 5,325 53 280 -1152
2019-10-17 20:28:04 GMT 60.033188 24.240858 5,425 58 281 -1344
2019-10-17 20:27:59 GMT 60.029575 24.226130 5,575 70 282 -1600
2019-10-17 20:27:55 GMT 60.028133 24.217300 5,675 75 282 -1600
2019-10-17 20:27:48 GMT 60.025944 24.197388 5,875 80 282 -1216
2019-10-17 20:27:43 GMT 60.025177 24.188959 5,925 79 283 -1152
2019-10-17 20:27:37 GMT 60.023163 24.172195 6,075 72 284 -1408
2019-10-17 20:27:34 GMT 60.021881 24.164808 6,150 65 284 -1408
2019-10-17 20:27:28 GMT 60.018124 24.150696 6,275 56 284 -1280
2019-10-17 20:27:24 GMT 60.015144 24.142063 6,375 54 285 -1152
2019-10-17 20:27:18 GMT 60.010117 24.128250 6,500 53 285 -1152
2019-10-17 20:27:14 GMT 60.007233 24.120483 6,575 53 286 -1216
2019-10-17 20:27:06 GMT 60.001328 24.104383 6,725 53 287 -1216
2019-10-17 20:27:03 GMT 59.998943 24.097824 6,800 53 287 -1216
2019-10-17 20:26:57 GMT 59.994057 24.084484 6,925 53 288 -1344
2019-10-17 20:26:53 GMT 59.991028 24.076159 7,025 54 288 -1152
2019-10-17 20:26:46 GMT 59.985909 24.062119 7,150 53 289 -1088
2019-10-17 20:26:43 GMT 59.983212 24.054762 7,200 53 291 -1088
2019-10-17 20:26:36 GMT 59.977669 24.039557 7,350 54 292 -960
2019-10-17 20:26:33 GMT 59.975052 24.032404 7,375 53 294 -640
2019-10-17 20:26:26 GMT 59.966675 24.009483 7,500 53 298 -1280
2019-10-17 20:26:23 GMT 59.966675 24.009483 7,525 53 298 -1408
2019-10-17 20:26:17 GMT 59.961517 23.995514 7,700 53 298 -1600
2019-10-17 20:26:14 GMT 59.959991 23.991299 7,750 53 298 -1408
2019-10-17 20:26:11 GMT 59.957886 23.985521 7,800 53 298 -1472
2019-10-17 20:26:07 GMT 59.954269 23.975830 7,975 53 298 -1472
2019-10-17 20:26:04 GMT 59.951843 23.969147 8,000 53 298 -1408
2019-10-17 20:26:01 GMT 59.949875 23.963837 8,050 53 298 -1472
2019-10-17 20:25:55 GMT 59.944153 23.948364 8,200 53 298 -1344
2019-10-17 20:25:51 GMT 59.941544 23.941315 8,300 53 298 -1344
2019-10-17 20:25:45 GMT 59.936142 23.926758 8,425 53 299 -1280
2019-10-17 20:25:42 GMT 59.933586 23.919888 8,500 53 300 -1216
2019-10-17 20:25:35 GMT 59.927719 23.904053 8,675 53 304 -1216
2019-10-17 20:25:32 GMT 59.924835 23.896212 8,725 53 303 -1024
2019-10-17 20:25:24 GMT 59.918518 23.879425 8,850 53 304 -1152
2019-10-17 20:25:21 GMT 59.916367 23.873566 8,900 53 305 -960
2019-10-17 20:25:14 GMT 59.910141 23.856812 9,050 53 307 -1280
2019-10-17 20:25:11 GMT 59.907761 23.850403 9,125 53 308 -1408
2019-10-17 20:25:04 GMT 59.901215 23.832550 9,325 53 308 -1536
2019-10-17 20:25:00 GMT 59.898811 23.825935 9,400 53 307 -1600
2019-10-17 20:24:53 GMT 59.892838 23.809753 9,525 53 308 -1344
2019-10-17 20:24:44 GMT 59.884102 23.786158 9,775 53 310 -1152
2019-10-17 20:24:41 GMT 59.881989 23.780457 9,825 53 311 -1024
2019-10-17 20:24:34 GMT 59.873486 23.757557 10,050 53 321 -576
2019-10-17 20:24:30 GMT 59.873486 23.757557 9,975 53 315 -768
2019-10-17 20:24:22 GMT 59.863804 23.731701 10,100 53 322 -576
2019-10-17 20:24:12 GMT 59.856949 23.713257 10,150 53 326 -640
2019-10-17 20:24:09 GMT 59.854797 23.707489 10,200 53 328 -640
2019-10-17 20:24:02 GMT 59.847233 23.687185 10,300 53 334 -576
2019-10-17 20:23:59 GMT 59.845787 23.683208 10,300 53 336 -640
2019-10-17 20:23:55 GMT 59.840572 23.669287 10,375 53 339 -640
2019-10-17 20:23:52 GMT 59.838638 23.664093 10,400 53 340 -640
2019-10-17 20:23:49 GMT 59.835617 23.656036 10,425 53 342 -640
2019-10-17 20:23:42 GMT 59.829208 23.638733 10,500 53 347 -640
2019-10-17 20:23:39 GMT 59.826874 23.632599 10,525 53 348 -704
2019-10-17 20:23:32 GMT 59.819672 23.613218 11,025 53 377 -960
2019-10-17 20:23:29 GMT 59.816788 23.605356 10,675 53 356 -704
2019-10-17 20:23:22 GMT 59.809204 23.584900 10,750 53 362 -768
2019-10-17 20:23:15 GMT 59.798813 23.556976 10,900 53 369 -832
2019-10-17 20:23:11 GMT 59.798813 23.556976 10,900 53 369 -832
2019-10-17 20:23:06 GMT 59.794022 23.544174 10,950 53 375 -960
2019-10-17 20:23:01 GMT 59.788330 23.528961 11,025 53 375 -768
2019-10-17 20:22:58 GMT 59.785629 23.521820 11,075 53 380 -768
2019-10-17 20:22:51 GMT 59.777206 23.499298 11,175 53 386 -832
2019-10-17 20:22:40 GMT 59.766266 23.470276 11,475 52 389 -2432
2019-10-17 20:22:37 GMT 59.763111 23.462061 11,600 53 390 -2432
2019-10-17 20:22:30 GMT 59.755188 23.441162 11,900 53 391 -2304
2019-10-17 20:22:26 GMT 59.751938 23.432556 12,025 53 392 -2240
2019-10-17 20:22:21 GMT 59.745163 23.414703 12,275 53 395 -2112
2019-10-17 20:22:18 GMT 59.742023 23.406277 12,350 53 395 -2048
2019-10-17 20:22:10 GMT 59.732208 23.380463 12,700 53 398 -2368
2019-10-17 20:22:00 GMT 59.722504 23.354828 13,025 53 400 -2560
2019-10-17 20:21:56 GMT 59.718063 23.343109 13,200 53 402 -2496
2019-10-17 20:21:50 GMT 59.710510 23.323059 13,425 53 402 -2496
2019-10-17 20:21:47 GMT 59.708038 23.316650 13,575 53 405 -2496
2019-10-17 20:21:38 GMT 59.697937 23.289783 13,875 53 404 -2624
2019-10-17 20:21:30 GMT 59.689087 23.266388 14,225 53 406 -2496
2019-10-17 20:21:27 GMT 59.686298 23.258909 14,350 53 406 -2496
2019-10-17 20:21:17 GMT 59.674614 23.227940 14,775 53 407 -2688
2019-10-17 20:21:09 GMT 59.662079 23.194794 15,300 53 410 -2560
2019-10-17 20:21:06 GMT 59.662079 23.194794 15,350 53 412 -2560
2019-10-17 20:20:57 GMT 59.652458 23.169218 15,700 53 413 -2560
2019-10-17 20:20:47 GMT 59.640633 23.137680 16,125 53 415 -2368
2019-10-17 20:20:44 GMT 59.637360 23.128784 16,250 53 417 -2240
2019-10-17 20:20:37 GMT 59.625458 23.096741 16,625 53 422 -2368
2019-10-17 20:20:27 GMT 59.618240 23.077162 16,875 54 424 -2240
2019-10-17 20:20:24 GMT 59.614655 23.067444 17,000 54 424 -2240
2019-10-17 20:20:17 GMT 59.605316 23.041534 17,300 54 426 -2304
2019-10-17 20:20:14 GMT 59.603027 23.035217 17,400 54 427 -2240
2019-10-17 20:20:06 GMT 59.591381 23.002247 17,750 55 430 -2176
2019-10-17 20:19:54 GMT 59.579742 22.968433 18,125 56 433 -2112
2019-10-17 20:19:46 GMT 59.571671 22.944397 18,400 57 435 -2432
2019-10-17 20:19:42 GMT 59.567917 22.932634 18,525 58 436 -2432
2019-10-17 20:19:36 GMT 59.560455 22.908508 18,825 59 438 -2368
2019-10-17 20:19:33 GMT 59.557983 22.900269 18,925 59 438 -2368
2019-10-17 20:19:25 GMT 59.549469 22.872162 19,200 59 440 -2176
2019-10-17 20:19:22 GMT 59.547249 22.864918 19,300 58 441 -2112
2019-10-17 20:19:15 GMT 59.539352 22.839111 19,575 58 444 -2176
2019-10-17 20:19:12 GMT 59.536076 22.828360 19,675 58 445 -2176
2019-10-17 20:19:05 GMT 59.528549 22.803772 20,025 58 448 -2432
2019-10-17 20:19:02 GMT 59.525463 22.793600 20,050 58 448 -2560
2019-10-17 20:18:55 GMT 59.514614 22.757990 20,350 59 448 -2304
2019-10-17 20:18:52 GMT 59.514614 22.757990 20,450 58 450 -2368
2019-10-17 20:18:44 GMT 59.506657 22.732134 20,750 58 451 -2368
2019-10-17 20:18:40 GMT 59.501953 22.716600 20,925 58 453 -2176
2019-10-17 20:18:34 GMT 59.495361 22.695099 21,150 59 454 -2176
2019-10-17 20:18:31 GMT 59.492226 22.684874 21,250 59 455 -2112
2019-10-17 20:18:25 GMT 59.485840 22.663879 21,500 59 458 -2368
2019-10-17 20:18:22 GMT 59.481720 22.650330 21,625 59 458 -2432
2019-10-17 20:18:16 GMT 59.475140 22.628521 21,875 59 461 -2432
2019-10-17 20:18:13 GMT 59.473415 22.622744 21,925 59 460 -2496
2019-10-17 20:18:10 GMT 59.469589 22.610138 22,000 59 460 -2368
2019-10-17 20:18:04 GMT 59.462219 22.585693 22,375 59 463 -2368
2019-10-17 20:18:01 GMT 59.460251 22.579193 22,425 59 463 -2368
2019-10-17 20:17:52 GMT 59.448395 22.540283 22,850 59 465 -2368
2019-10-17 20:17:42 GMT 59.436218 22.500275 23,250 59 469 -1984
2019-10-17 20:17:33 GMT 59.427330 22.470451 23,525 60 473 -2432
2019-10-17 20:17:30 GMT 59.425095 22.462555 23,625 61 474 -2368
2019-10-17 20:17:22 GMT 59.417679 22.431335 23,950 72 482 -2496
2019-10-17 20:17:19 GMT 59.415787 22.421202 24,050 71 481 -2496
2019-10-17 20:17:12 GMT 59.411407 22.390041 24,325 77 485 -2752
2019-10-17 20:17:09 GMT 59.410400 22.379242 24,475 81 487 -2880
2019-10-17 20:17:04 GMT 59.408943 22.350737 24,825 88 488 -3264
2019-10-17 20:17:01 GMT 59.408894 22.344486 25,025 91 489 -3392
2019-10-17 20:16:58 GMT 59.408943 22.332174 25,050 92 489 -3456
2019-10-17 20:16:52 GMT 59.410339 22.303099 25,500 100 488 -3904
2019-10-17 20:16:49 GMT 59.411827 22.287472 25,700 104 487 -3520
2019-10-17 20:16:40 GMT 59.416901 22.253756 26,175 111 484 -3904
2019-10-17 20:16:37 GMT 59.419327 22.241913 26,375 114 484 -3264
2019-10-17 20:16:34 GMT 59.422531 22.228455 26,625 119 485 -2240
2019-10-17 20:16:30 GMT 59.426632 22.213314 26,625 119 485 -2240
2019-10-17 20:16:26 GMT 59.431046 22.199524 26,825 122 485 -2240
2019-10-17 20:16:21 GMT 59.438084 22.180828 27,275 127 486 -2496
2019-10-17 20:16:18 GMT 59.443390 22.168896 27,200 132 486 -2496
2019-10-17 20:16:11 GMT 59.455402 22.146544 27,500 141 484 -2816
2019-10-17 20:16:08 GMT 59.458008 22.142395 27,725 144 483 -2944
2019-10-17 20:16:00 GMT 59.473938 22.121704 28,025 151 479 -3328
2019-10-17 20:15:56 GMT 59.480988 22.114655 28,150 153 478 -3456
2019-10-17 20:15:51 GMT 59.493164 22.104858 28,550 161 473 -2816
2019-10-17 20:15:42 GMT 59.511658 22.095428 29,075 171 467 -3200
2019-10-17 20:15:39 GMT 59.524204 22.092560 29,225 175 464 -3392
2019-10-17 20:15:35 GMT 59.524204 22.092560 29,300 179 460 -4224
2019-10-17 20:15:28 GMT 59.543381 22.093689 29,900 187 453 -2624
2019-10-17 20:15:25 GMT 59.547714 22.094831 30,050 188 452 -2496
2019-10-17 20:15:21 GMT 59.554871 22.097351 30,125 193 450 -2304
2019-10-17 20:15:15 GMT 59.567406 22.104208 30,375 200 447 -2240
2019-10-17 20:15:11 GMT 59.575089 22.110174 30,500 204 445 -2176
2019-10-17 20:15:04 GMT 59.586227 22.121246 30,725 211 443 -1984
2019-10-17 20:15:00 GMT 59.593613 22.130632 30,850 216 442 -1984
2019-10-17 20:14:57 GMT 59.600555 22.141113 31,025 221 441 -2176
2019-10-17 20:14:51 GMT 59.609257 22.157339 31,450 241 437 -576
2019-10-17 20:14:48 GMT 59.611862 22.162994 31,325 230 438 -2368
2019-10-17 20:14:43 GMT 59.617813 22.177917 31,525 237 435 -2240
2019-10-17 20:14:40 GMT 59.622150 22.190773 31,650 239 435 -1920
2019-10-17 20:14:37 GMT 59.624245 22.197592 31,750 240 436 -1600
2019-10-17 20:14:34 GMT 59.627747 22.209595 31,850 241 436 -1024
2019-10-17 20:14:29 GMT 59.633137 22.228750 31,950 241 437 -384
2019-10-17 20:14:26 GMT 59.636677 22.241253 32,000 241 438 -64
2019-10-17 20:14:23 GMT 59.641068 22.256927 32,000 241 438 0
2019-10-17 20:14:20 GMT 59.643997 22.267365 32,000 241 438 0
2019-10-17 20:14:17 GMT 59.643997 22.267365 32,000 241 438 0
2019-10-17 20:14:13 GMT 59.652130 22.296280 32,000 241 436 0
2019-10-17 20:14:10 GMT 59.652130 22.296280 32,000 241 436 0
2019-10-17 20:14:06 GMT 59.654984 22.306366 32,000 241 436 0
2019-10-17 20:14:03 GMT 59.662514 22.333216 32,000 241 436 0
2019-10-17 20:13:59 GMT 59.662514 22.333216 32,000 241 436 0
2019-10-17 20:13:55 GMT 59.666187 22.346476 32,000 242 436 0
2019-10-17 20:13:50 GMT 59.670593 22.362122 32,000 242 437 64
2019-10-17 20:13:46 GMT 59.673965 22.374319 32,000 242 436 0
2019-10-17 20:13:43 GMT 59.677876 22.388336 31,975 242 435 0
2019-10-17 20:13:40 GMT 59.680202 22.396671 32,000 242 435 0
2019-10-17 20:13:37 GMT 59.683594 22.408905 31,975 242 435 0
2019-10-17 20:13:33 GMT 59.686707 22.419983 32,000 242 435 0
2019-10-17 20:13:30 GMT 59.689590 22.430511 31,975 242 435 0
2019-10-17 20:13:27 GMT 59.693665 22.445068 32,000 242 435 64
2019-10-17 20:13:21 GMT 59.699890 22.467407 32,000 242 435 0
2019-10-17 20:13:18 GMT 59.701897 22.474712 31,975 242 435 0
2019-10-17 20:13:14 GMT 59.706924 22.492802 31,975 242 435 0
2019-10-17 20:13:11 GMT 59.708645 22.499147 31,975 242 435 0
2019-10-17 20:13:06 GMT 59.713299 22.515818 31,975 242 434 0
2019-10-17 20:13:02 GMT 59.717724 22.531822 31,975 242 434 0
2019-10-17 20:12:58 GMT 59.723682 22.553415 31,975 242 434 0
2019-10-17 20:12:55 GMT 59.723682 22.553415 31,975 242 434 0
2019-10-17 20:12:51 GMT 59.727631 22.567657 32,000 242 434 0
2019-10-17 20:12:45 GMT 59.733318 22.588175 32,000 242 434 0
2019-10-17 20:12:41 GMT 59.737427 22.603180 32,000 242 434 0
2019-10-17 20:12:38 GMT 59.740128 22.612885 31,975 242 434 0
2019-10-17 20:12:35 GMT 59.743011 22.623322 32,000 242 434 0
2019-10-17 20:12:32 GMT 59.746166 22.634867 32,000 242 434 64
2019-10-17 20:12:29 GMT 59.749241 22.646042 32,000 242 434 0
2019-10-17 20:12:25 GMT 59.753357 22.661041 32,000 242 434 0
2019-10-17 20:12:20 GMT 59.757797 22.677063 31,975 242 435 64
2019-10-17 20:12:14 GMT 59.763153 22.696655 31,975 242 435 64
2019-10-17 20:12:11 GMT 59.765903 22.706751 32,000 242 435 0
2019-10-17 20:12:08 GMT 59.772655 22.731281 31,975 242 435 64
2019-10-17 20:12:05 GMT 59.775604 22.742157 31,975 242 435 128
2019-10-17 20:12:02 GMT 59.777527 22.749115 31,975 242 435 192
2019-10-17 20:11:56 GMT 59.780849 22.761305 31,950 242 434 256
2019-10-17 20:11:53 GMT 59.786621 22.782330 31,950 242 434 384
2019-10-17 20:11:50 GMT 59.786621 22.782330 31,925 242 434 384
2019-10-17 20:11:44 GMT 59.791973 22.801840 31,850 242 433 896
2019-10-17 20:11:40 GMT 59.798630 22.826275 31,800 242 433 1088
2019-10-17 20:11:37 GMT 59.798630 22.826275 31,725 242 433 1344
2019-10-17 20:11:34 GMT 59.801788 22.837830 31,700 242 433 1472
2019-10-17 20:11:31 GMT 59.804916 22.849289 31,625 242 434 1472
2019-10-17 20:11:27 GMT 59.807987 22.860464 31,550 242 435 1280
2019-10-17 20:11:23 GMT 59.811905 22.874817 31,450 242 435 1408
2019-10-17 20:11:20 GMT 59.815338 22.887451 31,150 242 435 1344
2019-10-17 20:11:16 GMT 59.819138 22.901459 31,150 242 435 1344
2019-10-17 20:11:12 GMT 59.821907 22.911608 31,175 242 435 1280
2019-10-17 20:11:09 GMT 59.825165 22.923542 31,150 242 435 1344
2019-10-17 20:11:04 GMT 59.829895 22.940735 31,075 242 435 1280
2019-10-17 20:11:01 GMT 59.832550 22.950531 30,975 242 435 960
2019-10-17 20:10:58 GMT 59.835434 22.961060 30,825 242 435 1024
2019-10-17 20:10:55 GMT 59.839279 22.975159 30,850 242 435 1024
2019-10-17 20:10:52 GMT 59.841644 22.983871 30,800 242 434 1088
2019-10-17 20:10:49 GMT 59.847885 23.006653 30,650 242 434 1152
2019-10-17 20:10:42 GMT 59.851048 23.018156 30,600 242 434 1344
2019-10-17 20:10:39 GMT 59.854019 23.029083 30,550 242 434 1344
2019-10-17 20:10:36 GMT 59.857819 23.043091 30,475 242 434 1472
2019-10-17 20:10:32 GMT 59.861290 23.055946 30,375 242 434 1664
2019-10-17 20:10:27 GMT 59.865108 23.070059 30,275 242 434 1792
2019-10-17 20:10:24 GMT 59.867889 23.080261 30,025 242 435 1792
2019-10-17 20:10:21 GMT 59.870544 23.090149 30,000 242 436 1984
2019-10-17 20:10:18 GMT 59.874046 23.103207 29,975 242 436 2048
2019-10-17 20:10:15 GMT 59.876999 23.114136 29,825 242 438 2112
2019-10-17 20:10:11 GMT 59.880329 23.126600 29,625 242 440 2240
2019-10-17 20:10:07 GMT 59.884094 23.140411 29,550 242 440 2304
2019-10-17 20:10:03 GMT 59.888199 23.155769 29,400 242 442 2112
2019-10-17 20:10:00 GMT 59.890594 23.164764 29,300 242 442 1984
2019-10-17 20:09:55 GMT 59.896591 23.187012 29,100 242 444 1536
2019-10-17 20:09:50 GMT 59.900349 23.200947 29,025 242 443 1280
2019-10-17 20:09:46 GMT 59.908585 23.231506 28,850 242 443 1344
2019-10-17 20:09:42 GMT 59.908585 23.231506 28,825 242 443 1280
2019-10-17 20:09:39 GMT 59.911007 23.240440 28,775 242 443 1408
2019-10-17 20:09:36 GMT 59.914314 23.252659 28,600 242 442 1472
2019-10-17 20:09:33 GMT 59.918289 23.267303 28,600 242 442 1408
2019-10-17 20:09:24 GMT 59.926697 23.298498 28,400 242 442 1472
2019-10-17 20:09:21 GMT 59.929504 23.308868 28,250 242 443 1728
2019-10-17 20:09:16 GMT 59.933945 23.325348 28,150 242 443 1728
2019-10-17 20:09:13 GMT 59.937378 23.338348 28,075 242 443 1728
2019-10-17 20:09:10 GMT 59.939484 23.346222 28,000 242 443 1664
2019-10-17 20:09:04 GMT 59.946156 23.371044 27,800 242 443 1472
2019-10-17 20:08:59 GMT 59.951553 23.391125 27,675 242 443 1216
2019-10-17 20:08:55 GMT 59.957977 23.415180 27,500 242 442 1152
2019-10-17 20:08:51 GMT 59.957977 23.415180 27,550 242 442 1088
2019-10-17 20:08:48 GMT 59.960632 23.425219 27,500 243 441 1024
2019-10-17 20:08:44 GMT 59.964542 23.439920 27,425 243 440 960
2019-10-17 20:08:39 GMT 59.969421 23.458084 27,350 243 439 1088
2019-10-17 20:08:34 GMT 59.973953 23.475225 27,250 243 437 1152
2019-10-17 20:08:31 GMT 59.976879 23.486219 27,175 243 436 1280
2019-10-17 20:08:28 GMT 59.979301 23.495440 27,125 243 436 1216
2019-10-17 20:08:24 GMT 59.986542 23.522770 27,025 243 435 1216
2019-10-17 20:08:18 GMT 59.989380 23.533379 26,925 243 434 1216
2019-10-17 20:08:14 GMT 59.992722 23.546068 26,850 243 433 1216
2019-10-17 20:08:10 GMT 59.996841 23.561602 26,725 243 432 1280
2019-10-17 20:08:07 GMT 59.998806 23.568911 26,700 243 432 1344
2019-10-17 20:08:04 GMT 60.005722 23.595318 26,550 243 430 1472
2019-10-17 20:08:00 GMT 60.008148 23.604410 26,450 243 430 1472
2019-10-17 20:07:54 GMT 60.012676 23.621586 26,325 243 429 1536
2019-10-17 20:07:51 GMT 60.013504 23.624773 26,300 243 429 1536
2019-10-17 20:07:48 GMT 60.017101 23.638458 26,200 243 428 1728
2019-10-17 20:07:44 GMT 60.023254 23.661900 26,050 243 428 1792
2019-10-17 20:07:41 GMT 60.023254 23.661900 26,000 243 428 1856
2019-10-17 20:07:37 GMT 60.026829 23.675537 25,875 243 428 1856
2019-10-17 20:07:31 GMT 60.032959 23.699024 25,750 243 428 1792
2019-10-17 20:07:28 GMT 60.035889 23.710201 25,575 243 428 1664
2019-10-17 20:07:23 GMT 60.040749 23.728703 25,425 243 427 1600
2019-10-17 20:07:19 GMT 60.043495 23.739199 25,350 243 427 1600
2019-10-17 20:07:16 GMT 60.045593 23.747232 25,275 243 427 1600
2019-10-17 20:07:13 GMT 60.051876 23.771374 25,125 243 426 1536
2019-10-17 20:07:07 GMT 60.054436 23.781084 25,025 243 426 1472
2019-10-17 20:07:02 GMT 60.061890 23.810024 24,875 243 424 1536
2019-10-17 20:06:56 GMT 60.063675 23.816938 24,775 243 423 1472
2019-10-17 20:06:50 GMT 60.069580 23.839006 24,625 241 423 1408
2019-10-17 20:06:46 GMT 60.073059 23.851225 24,525 241 422 1408
2019-10-17 20:06:43 GMT 60.077061 23.864952 24,400 240 421 1408
2019-10-17 20:06:39 GMT 60.081207 23.878595 24,325 239 420 1408
2019-10-17 20:06:36 GMT 60.084183 23.888201 24,250 238 420 1472
2019-10-17 20:06:32 GMT 60.087486 23.898600 24,200 238 419 1472
2019-10-17 20:06:29 GMT 60.091873 23.911839 24,125 237 419 1472
2019-10-17 20:06:26 GMT 60.094666 23.920172 24,025 236 417 1472
2019-10-17 20:06:21 GMT 60.100521 23.936855 23,875 235 417 1600
2019-10-17 20:06:18 GMT 60.103363 23.944702 23,725 233 417 1728
2019-10-17 20:06:15 GMT 60.106247 23.952452 23,725 233 417 1728
2019-10-17 20:06:12 GMT 60.109818 23.961939 23,650 233 416 1920
2019-10-17 20:06:08 GMT 60.115128 23.976051 23,300 233 414 1856
2019-10-17 20:06:05 GMT 60.118149 23.984007 23,400 234 415 1856
2019-10-17 20:06:02 GMT 60.121704 23.993454 23,325 233 414 1856
2019-10-17 20:05:58 GMT 60.126778 24.006990 23,200 233 414 1856
2019-10-17 20:05:55 GMT 60.130096 24.015829 23,075 233 414 1856
2019-10-17 20:05:51 GMT 60.133804 24.025583 22,975 233 414 1920
2019-10-17 20:05:48 GMT 60.138153 24.037233 22,900 233 413 1920
2019-10-17 20:05:45 GMT 60.141632 24.046326 22,775 233 412 1728
2019-10-17 20:05:42 GMT 60.144932 24.055155 22,700 233 412 1728
2019-10-17 20:05:38 GMT 60.148956 24.065836 22,525 233 411 1856
2019-10-17 20:05:35 GMT 60.153404 24.077618 22,450 234 410 1920
2019-10-17 20:05:32 GMT 60.157379 24.088282 22,350 233 409 2048
2019-10-17 20:05:28 GMT 60.165043 24.108517 22,150 233 409 2112
2019-10-17 20:05:24 GMT 60.165043 24.108517 22,100 233 409 2048
2019-10-17 20:05:18 GMT 60.172306 24.127840 21,900 233 409 1984
2019-10-17 20:05:15 GMT 60.176636 24.139317 21,750 234 407 1792
2019-10-17 20:05:11 GMT 60.180130 24.148706 21,575 233 407 1856
2019-10-17 20:05:08 GMT 60.184662 24.160734 21,550 234 406 1792
2019-10-17 20:05:04 GMT 60.187668 24.168842 21,500 234 406 1792
2019-10-17 20:05:01 GMT 60.191532 24.179045 21,350 234 405 1792
2019-10-17 20:04:57 GMT 60.197021 24.193789 21,225 234 404 1728
2019-10-17 20:04:54 GMT 60.200237 24.202391 21,125 234 402 1728
2019-10-17 20:04:50 GMT 60.202789 24.209320 21,075 234 402 1728
2019-10-17 20:04:47 GMT 60.207916 24.222960 20,950 234 401 1728
2019-10-17 20:04:44 GMT 60.214371 24.240196 20,850 234 400 1728
2019-10-17 20:04:41 GMT 60.214371 24.240196 20,775 234 400 1728
2019-10-17 20:04:37 GMT 60.218765 24.252035 20,675 234 398 1792
2019-10-17 20:04:34 GMT 60.221420 24.259138 20,575 234 397 1984
2019-10-17 20:04:30 GMT 60.225586 24.270313 19,525 234 396 2048
2019-10-17 20:04:26 GMT 60.229656 24.281158 20,325 234 395 2112
2019-10-17 20:04:23 GMT 60.233566 24.291752 20,175 234 395 2240
2019-10-17 20:04:20 GMT 60.236755 24.300241 20,075 234 394 2368
2019-10-17 20:04:16 GMT 60.240692 24.310850 19,925 234 394 2496
2019-10-17 20:04:12 GMT 60.245346 24.323437 19,750 234 394 2560
2019-10-17 20:04:09 GMT 60.247833 24.330172 19,650 234 394 2496
2019-10-17 20:04:06 GMT 60.252411 24.342484 19,500 234 393 2304
2019-10-17 20:04:02 GMT 60.256119 24.352522 19,400 234 393 2048
2019-10-17 20:03:59 GMT 60.258911 24.360100 19,275 234 393 1984
2019-10-17 20:03:56 GMT 60.262897 24.370913 19,150 234 391 2112
2019-10-17 20:03:53 GMT 60.265823 24.378853 19,000 234 391 2112
2019-10-17 20:03:50 GMT 60.270252 24.390825 18,900 234 391 2112
2019-10-17 20:03:46 GMT 60.274117 24.401222 18,775 234 390 1920
2019-10-17 20:03:42 GMT 60.277222 24.409727 18,650 234 387 2048
2019-10-17 20:03:39 GMT 60.280838 24.419577 18,575 234 387 2048
2019-10-17 20:03:35 GMT 60.284866 24.430563 18,450 234 386 2112
2019-10-17 20:03:32 GMT 60.287754 24.438301 18,325 234 386 2240
2019-10-17 20:03:29 GMT 60.291340 24.448111 18,225 234 384 2304
2019-10-17 20:03:24 GMT 60.296227 24.461256 18,025 234 384 2560
2019-10-17 20:03:21 GMT 60.302559 24.478519 17,775 234 383 2496
2019-10-17 20:03:15 GMT 60.306980 24.490486 17,600 234 383 2496
2019-10-17 20:03:12 GMT 60.309494 24.497355 17,450 234 383 2240
2019-10-17 20:03:09 GMT 60.313385 24.507940 17,350 234 381 2240
2019-10-17 20:03:04 GMT 60.317875 24.520208 17,200 234 381 2176
2019-10-17 20:03:00 GMT 60.321644 24.530510 17,050 234 379 2112
2019-10-17 20:02:57 GMT 60.324875 24.539289 16,950 234 378 2176
2019-10-17 20:02:54 GMT 60.328629 24.549423 16,825 234 378 2432
2019-10-17 20:02:49 GMT 60.334774 24.566017 16,575 234 376 2624
2019-10-17 20:02:43 GMT 60.339520 24.578966 15,675 234 376 2496
2019-10-17 20:02:38 GMT 60.345108 24.594172 16,125 234 375 2432
2019-10-17 20:02:34 GMT 60.352203 24.613447 15,925 234 373 2240
2019-10-17 20:02:31 GMT 60.352203 24.613447 15,825 234 373 2240
2019-10-17 20:02:28 GMT 60.355499 24.622444 15,750 234 372 2176
2019-10-17 20:02:24 GMT 60.359161 24.632389 15,575 234 371 2496
2019-10-17 20:02:21 GMT 60.366257 24.651711 15,425 234 370 2496
2019-10-17 20:02:17 GMT 60.366257 24.651711 15,325 234 368 2688
2019-10-17 20:02:14 GMT 60.369644 24.660896 15,100 234 368 2624
2019-10-17 20:02:11 GMT 60.373169 24.670557 15,100 234 368 2624
2019-10-17 20:02:07 GMT 60.376717 24.680199 14,875 234 367 2496
2019-10-17 20:02:04 GMT 60.381042 24.692057 14,150 234 363 2688
2019-10-17 20:02:00 GMT 60.383652 24.699160 14,550 234 365 2624
2019-10-17 20:01:56 GMT 60.387142 24.708841 14,450 234 366 2624
2019-10-17 20:01:52 GMT 60.391380 24.720318 14,275 234 364 2688
2019-10-17 20:01:49 GMT 60.394867 24.729845 14,075 234 363 2496
2019-10-17 20:01:43 GMT 60.400551 24.745331 13,825 234 362 2624
2019-10-17 20:01:40 GMT 60.403950 24.754551 13,725 234 361 2688
2019-10-17 20:01:37 GMT 60.406929 24.762693 13,525 234 361 2816
2019-10-17 20:01:33 GMT 60.411072 24.773973 13,325 234 359 2880
2019-10-17 20:01:28 GMT 60.415146 24.785063 13,125 234 360 2944
2019-10-17 20:01:25 GMT 60.418194 24.793396 12,975 234 359 2944
2019-10-17 20:01:22 GMT 60.421463 24.802204 12,800 234 358 2816
2019-10-17 20:01:16 GMT 60.427231 24.817736 12,550 233 357 2560
2019-10-17 20:01:12 GMT 60.431694 24.829691 12,350 234 355 2624
2019-10-17 20:01:09 GMT 60.434254 24.836557 12,225 233 354 2560
2019-10-17 20:01:06 GMT 60.437607 24.845484 12,075 233 353 2624
2019-10-17 20:01:03 GMT 60.440586 24.853428 11,950 233 352 2368
2019-10-17 20:01:00 GMT 60.443333 24.860687 11,850 233 351 2176
2019-10-17 20:00:56 GMT 60.447662 24.872164 11,700 233 349 1984
2019-10-17 20:00:51 GMT 60.452175 24.883936 11,575 233 346 1856
2019-10-17 20:00:48 GMT 60.454643 24.890606 11,375 233 341 1408
2019-10-17 20:00:45 GMT 60.458138 24.899729 11,375 233 340 1344
2019-10-17 20:00:40 GMT 60.463165 24.913013 11,275 233 334 1024
2019-10-17 20:00:34 GMT 60.468098 24.925919 11,200 233 328 896
2019-10-17 20:00:31 GMT 60.470947 24.933472 11,150 233 322 896
2019-10-17 20:00:28 GMT 60.476898 24.949364 10,975 234 313 960
2019-10-17 20:00:24 GMT 60.476898 24.949364 11,025 235 305 1024
2019-10-17 20:00:21 GMT 60.479969 24.957800 10,975 234 309 960
2019-10-17 20:00:18 GMT 60.482758 24.965485 10,900 235 305 1024
2019-10-17 20:00:14 GMT 60.485554 24.973591 10,850 236 299 1152
2019-10-17 20:00:10 GMT 60.488068 24.980947 10,775 237 296 1344
2019-10-17 20:00:06 GMT 60.493610 24.998606 10,625 239 290 1792
2019-10-17 20:00:03 GMT 60.493610 24.998606 10,575 240 286 2048
2019-10-17 19:59:59 GMT 60.496170 25.007727 10,450 241 284 2368
2019-10-17 19:59:56 GMT 60.498276 25.015965 10,275 244 282 2816
2019-10-17 19:59:51 GMT 60.500965 25.028816 10,000 254 281 2816
2019-10-17 19:59:47 GMT 60.502083 25.037449 9,825 260 280 2944
2019-10-17 19:59:44 GMT 60.502731 25.046278 9,675 267 280 3072
2019-10-17 19:59:40 GMT 60.502853 25.055363 9,475 273 280 3072
2019-10-17 19:59:37 GMT 60.502579 25.063698 9,350 279 279 3008
2019-10-17 19:59:33 GMT 60.501801 25.072174 9,250 282 279 3008
2019-10-17 19:59:29 GMT 60.499847 25.084044 8,925 294 279 3008
2019-10-17 19:59:26 GMT 60.498459 25.089931 8,800 300 279 2880
2019-10-17 19:59:23 GMT 60.495483 25.099688 8,575 307 279 2944
2019-10-17 19:59:18 GMT 60.491749 25.108566 8,350 314 277 2944
2019-10-17 19:59:15 GMT 60.490402 25.111338 8,300 318 277 3008
2019-10-17 19:59:11 GMT 60.485508 25.119259 8,050 330 277 3072
2019-10-17 19:59:08 GMT 60.478958 25.126774 7,825 334 277 3072
2019-10-17 19:59:05 GMT 60.478958 25.126774 7,725 338 277 3008
2019-10-17 19:58:59 GMT 60.470520 25.132010 7,375 352 276 3136
2019-10-17 19:58:56 GMT 60.467651 25.132835 7,150 358 275 3264
2019-10-17 19:58:53 GMT 60.462185 25.133579 7,150 358 275 3264
2019-10-17 19:58:47 GMT 60.457111 25.133579 6,850 0 275 3328
2019-10-17 19:58:44 GMT 60.452408 25.133499 6,600 0 274 3328
2019-10-17 19:58:37 GMT 60.443192 25.133089 6,125 1 273 3264
2019-10-17 19:58:34 GMT 60.439190 25.132893 6,025 1 272 3200
2019-10-17 19:58:29 GMT 60.433651 25.132502 5,550 6 266 3456
2019-10-17 19:58:25 GMT 60.427780 25.131794 5,550 4 269 3072
2019-10-17 19:58:22 GMT 60.424198 25.131226 5,400 6 268 3136
2019-10-17 19:58:16 GMT 60.416798 25.129559 5,075 7 267 3520
2019-10-17 19:58:13 GMT 60.414375 25.128872 4,950 7 267 2944
2019-10-17 19:58:10 GMT 60.411072 25.128004 4,675 11 265 2560
2019-10-17 19:58:07 GMT 60.399479 25.121712 4,175 18 263 1984
2019-10-17 19:58:01 GMT 60.399479 25.121712 4,425 23 260 2048
2019-10-17 19:57:58 GMT 60.396378 25.118629 4,275 47 223 1344
2019-10-17 19:57:51 GMT 60.389797 25.109449 4,150 42 244 1344
2019-10-17 19:57:47 GMT 60.386726 25.103563 4,075 46 239 1216
2019-10-17 19:57:42 GMT 60.383102 25.095615 3,950 47 230 1344
2019-10-17 19:57:36 GMT 60.378937 25.086617 3,825 47 223 1344
2019-10-17 19:57:33 GMT 60.376530 25.081297 3,250 47 220 1408
2019-10-17 19:57:30 GMT 60.374203 25.076294 3,700 47 216 1280
2019-10-17 19:57:26 GMT 60.371613 25.070610 3,575 47 208 1344
2019-10-17 19:57:21 GMT 60.366394 25.059151 3,400 47 201 2240
2019-10-17 19:57:17 GMT 60.366394 25.059151 3,325 48 200 2304
2019-10-17 19:57:13 GMT 60.363922 25.053564 3,175 48 198 2432
2019-10-17 19:57:10 GMT 60.362053 25.049318 3,025 48 197 2496
2019-10-17 19:57:07 GMT 60.360168 25.045040 2,700 48 192 1984
2019-10-17 19:57:04 GMT 60.357788 25.039547 2,775 48 190 1792
2019-10-17 19:57:01 GMT 60.352890 25.028372 2,550 48 188 1408
2019-10-17 19:56:56 GMT 60.352230 25.026955 2,500 47 185 1600
2019-10-17 19:56:50 GMT 60.349857 25.021658 2,375 48 179 1664
2019-10-17 19:56:46 GMT 60.347717 25.016815 2,300 48 177 1728
2019-10-17 19:56:43 GMT 60.346573 25.014071 2,200 48 173 1984
2019-10-17 19:56:39 GMT 60.343918 25.008007 2,000 47 172 2880
2019-10-17 19:56:35 GMT 60.341995 25.003841 1,825 47 170 3200
2019-10-17 19:56:32 GMT 60.340897 25.001472 1,725 47 171 3136
2019-10-17 19:56:28 GMT 60.338745 24.996832 1,475 47 172 2880
2019-10-17 19:56:22 GMT 60.335175 24.989065 1,175 47 173 2816
2019-10-17 19:56:19 GMT 60.333527 24.985468 1,025 47 172 2432
2019-10-17 19:56:10 GMT 60.328163 24.973688 550 47 169 2496
2019-10-17 19:55:59 GMT 60.323044 24.962240 0 47 170
2019-10-17 19:55:49 GMT 60.318317 24.951775 0 47 135
2019-10-17 19:55:38 GMT 60.314674 24.943747 0 47 90
2019-10-17 19:55:27 GMT 60.312580 24.939161 0 47 39
2019-10-17 19:55:17 GMT 60.311840 24.937521 0 45 15
2019-10-17 19:55:05 GMT 60.311085 24.937214 0 337 15
2019-10-17 19:54:54 GMT 60.310524 24.938135 0 306 15
2019-10-17 19:54:46 GMT 60.310329 24.938965 0 278 15
2019-10-17 19:54:36 GMT 60.310490 24.940172 0 227 13
2019-10-17 19:54:25 GMT 60.311073 24.941450 0 227 25
2019-10-17 19:54:14 GMT 60.311932 24.943344 0 227 26
2019-10-17 19:54:06 GMT 60.312550 24.944717 0 227 29
2019-10-17 19:53:54 GMT 60.313511 24.946836 0 227 28
2019-10-17 19:53:45 GMT 60.314243 24.948456 0 227 25
2019-10-17 19:53:35 GMT 60.314976 24.950069 0 227 23
2019-10-17 19:53:24 GMT 60.315758 24.951765 0 227 26
2019-10-17 19:53:14 GMT 60.316536 24.953482 0 227 25
2019-10-17 19:53:02 GMT 60.317326 24.955223 0 230 22
2019-10-17 19:52:52 GMT 60.318031 24.956795 0 227 24
2019-10-17 19:52:42 GMT 60.318741 24.958357 0 227 23
2019-10-17 19:52:32 GMT 60.319405 24.959826 0 225 22
2019-10-17 19:52:22 GMT 60.320068 24.961292 0 227 22
2019-10-17 19:52:11 GMT 60.320759 24.962826 0 225 23
2019-10-17 19:51:59 GMT 60.321522 24.964514 0 225 17
2019-10-17 19:51:41 GMT 60.322369 24.966290 0 236 12
2019-10-17 19:51:31 GMT 60.322739 24.967167 0 225 10
2019-10-17 19:51:20 GMT 60.323009 24.967709 0 236 11
We lost coverage of the aircraft here for a total of 11 minutes
2019-10-17 19:40:04 GMT 60.310917 24.989483 0 343 2

Making use of Plane Finder data

You are free to use the raw flight data, aircraft information and images provided in this report for your own purposes provided the data is correctly attributed to Plane Finder. We ask that you please credit Plane Finder and link to planefinder.net in close proximity to the content.

Optionally one of the following logos (no smaller then 150x24px) can be used and must link to planefinder.net

Embedding the Plane Finder map

You are welcome to embed the Plane Finder playback map on your website to offer visitors a more interactive experience. We suggest using the following HTML code:

<iframe src="//planefinder.net/data/report/QY3611-D-AEAQ-7700-squawk-2019-10-17/map" width="800" height="600" seamless="seamless"></iframe>

Where our data comes from

Plane Finder has a global network of data feeds and antenna radars that receive data broadcast directly from aircraft. The primary technologies used are ADS-B and MLAT. We also show feeds from the FAA and a FLARM glider feed.

Click here to find out more about the Plane Finder network.

How we collect our data